Observation data for Menard on 09/17/2019      Previous  Date  Next       Current Mesonet Observations  Soil Data  Daily Summary Page  Observations in Plain Language
KMD1 170500Z 07002KT 25/16 A3002 RMK A01 T02460158  RH  058%=      5-min Rain = 0
KMD1 170501Z 07003KT 25/16 A3002 RMK A01 T02460159  RH  058%=      5-min Rain = 0
KMD1 170502Z 07003KT 25/16 A3002 RMK A01 T02450159  RH  059%=      5-min Rain = 0
KMD1 170503Z 07003KT 25/16 A3002 RMK A01 T02450159  RH  059%=      5-min Rain = 0
KMD1 170504Z 07003KT 24/16 A3002 RMK A01 T02440159  RH  059%=      5-min Rain = 0
KMD1 170505Z 07003KT 24/16 A3002 RMK A01 T02440159  RH  059%=      5-min Rain = 0
KMD1 170506Z 08003KT 24/16 A3002 RMK A01 T02440159  RH  059%=      5-min Rain = 0
KMD1 170507Z 08003KT 24/16 A3002 RMK A01 T02440159  RH  059%=      5-min Rain = 0
KMD1 170508Z 08003KT 24/16 A3002 RMK A01 T02430159  RH  059%=      5-min Rain = 0
KMD1 170509Z 08003KT 24/16 A3002 RMK A01 T02430159  RH  059%=      5-min Rain = 0
KMD1 170510Z 08003KT 24/16 A3002 RMK A01 T02430159  RH  059%=      5-min Rain = 0
KMD1 170511Z 08002KT 24/16 A3002 RMK A01 T02420159  RH  060%=      5-min Rain = 0
KMD1 170512Z 08002KT 24/16 A3002 RMK A01 T02410159  RH  060%=      5-min Rain = 0
KMD1 170513Z 08003KT 24/16 A3002 RMK A01 T02410159  RH  060%=      5-min Rain = 0
KMD1 170514Z 08003KT 24/16 A3002 RMK A01 T02410160  RH  060%=      5-min Rain = 0
KMD1 170515Z 08002KT 24/16 A3002 RMK A01 T02410159  RH  060%=      5-min Rain = 0
KMD1 170516Z 08002KT 24/16 A3002 RMK A01 T02410160  RH  060%=      5-min Rain = 0
KMD1 170517Z 07002KT 24/16 A3002 RMK A01 T02410159  RH  060%=      5-min Rain = 0
KMD1 170518Z 06002KT 24/16 A3002 RMK A01 T02410159  RH  060%=      5-min Rain = 0
KMD1 170519Z 06003KT 24/16 A3002 RMK A01 T02410159  RH  060%=      5-min Rain = 0
KMD1 170520Z 05003KT 24/16 A3002 RMK A01 T02420160  RH  060%=      5-min Rain = 0
KMD1 170521Z 06003KT 24/16 A3002 RMK A01 T02410160  RH  060%=      5-min Rain = 0
KMD1 170522Z 06003KT 24/16 A3002 RMK A01 T02400159  RH  060%=      5-min Rain = 0
KMD1 170523Z 06003KT 24/16 A3002 RMK A01 T02390159  RH  061%=      5-min Rain = 0
KMD1 170524Z 07003KT 24/16 A3002 RMK A01 T02380159  RH  061%=      5-min Rain = 0
KMD1 170525Z 07002KT 24/16 A3002 RMK A01 T02370160  RH  062%=      5-min Rain = 0
KMD1 170526Z 07002KT 24/16 A3002 RMK A01 T02370160  RH  062%=      5-min Rain = 0
KMD1 170527Z 07002KT 24/16 A3002 RMK A01 T02360160  RH  062%=      5-min Rain = 0
KMD1 170528Z 06002KT 24/16 A3002 RMK A01 T02360160  RH  062%=      5-min Rain = 0
KMD1 170529Z 07003KT 24/16 A3002 RMK A01 T02370160  RH  062%=      5-min Rain = 0
KMD1 170530Z 07002KT 24/16 A3002 RMK A01 T02360160  RH  062%=      5-min Rain = 0
KMD1 170531Z 07002KT 24/16 A3002 RMK A01 T02360160  RH  062%=      5-min Rain = 0
KMD1 170532Z 06002KT 24/16 A3002 RMK A01 T02360160  RH  062%=      5-min Rain = 0
KMD1 170533Z 06002KT 24/16 A3002 RMK A01 T02360160  RH  062%=      5-min Rain = 0
KMD1 170534Z 06003KT 24/16 A3002 RMK A01 T02360160  RH  062%=      5-min Rain = 0
KMD1 170535Z 08002KT 24/16 A3002 RMK A01 T02360160  RH  062%=      5-min Rain = 0
KMD1 170536Z 07002KT 24/16 A3002 RMK A01 T02350159  RH  062%=      5-min Rain = 0
KMD1 170537Z 07002KT 24/16 A3002 RMK A01 T02350159  RH  063%=      5-min Rain = 0
KMD1 170538Z 07002KT 24/16 A3002 RMK A01 T02350160  RH  063%=      5-min Rain = 0
KMD1 170539Z 07003KT 24/16 A3002 RMK A01 T02350159  RH  063%=      5-min Rain = 0
KMD1 170540Z 06003KT 24/16 A3002 RMK A01 T02350159  RH  062%=      5-min Rain = 0
KMD1 170541Z 06003KT 24/16 A3002 RMK A01 T02350160  RH  063%=      5-min Rain = 0
KMD1 170542Z 06003KT 23/16 A3002 RMK A01 T02340160  RH  063%=      5-min Rain = 0
KMD1 170543Z 07003KT 23/16 A3001 RMK A01 T02310159  RH  064%=      5-min Rain = 0
KMD1 170544Z 07003KT 23/16 A3001 RMK A01 T02290160  RH  065%=      5-min Rain = 0
KMD1 170545Z 07003KT 23/16 A3001 RMK A01 T02280161  RH  066%=      5-min Rain = 0
KMD1 170546Z 06004KT 23/16 A3001 RMK A01 T02270161  RH  066%=      5-min Rain = 0
KMD1 170547Z 07004KT 23/16 A3001 RMK A01 T02250161  RH  067%=      5-min Rain = 0
KMD1 170548Z 07004KT 22/16 A3001 RMK A01 T02230161  RH  068%=      5-min Rain = 0
KMD1 170549Z 07004KT 22/16 A3001 RMK A01 T02230161  RH  068%=      5-min Rain = 0
KMD1 170550Z 07004KT 22/16 A3001 RMK A01 T02220161  RH  068%=      5-min Rain = 0
KMD1 170551Z 07004KT 22/16 A3001 RMK A01 T02220161  RH  068%=      5-min Rain = 0
KMD1 170552Z 08004KT 22/16 A3001 RMK A01 T02230161  RH  068%=      5-min Rain = 0
KMD1 170553Z 07003KT 22/16 A3001 RMK A01 T02240161  RH  068%=      5-min Rain = 0
KMD1 170554Z 07003KT 22/16 A3001 RMK A01 T02240160  RH  067%=      5-min Rain = 0
KMD1 170555Z 07003KT 23/16 A3001 RMK A01 T02260161  RH  067%=      5-min Rain = 0
KMD1 170556Z 07003KT 23/16 A3001 RMK A01 T02260161  RH  067%=      5-min Rain = 0
KMD1 170557Z 07003KT 23/16 A3001 RMK A01 T02260161  RH  067%=      5-min Rain = 0
KMD1 170558Z 07003KT 23/16 A3001 RMK A01 T02260161  RH  067%=      5-min Rain = 0
KMD1 170559Z 07003KT 23/16 A3002 RMK A01 T02260161  RH  067%=      5-min Rain = 0
KMD1 170600Z 07003KT 23/16 A3002 RMK A01 T02260161  RH  067%=      5-min Rain = 0
KMD1 170601Z 08003KT 23/16 A3002 RMK A01 T02260161  RH  067%=      5-min Rain = 0
KMD1 170602Z 08003KT 23/16 A3002 RMK A01 T02250161  RH  067%=      5-min Rain = 0
KMD1 170603Z 08002KT 22/16 A3002 RMK A01 T02240161  RH  067%=      5-min Rain = 0
KMD1 170604Z 08002KT 22/16 A3002 RMK A01 T02240161  RH  067%=      5-min Rain = 0
KMD1 170605Z 08002KT 22/16 A3002 RMK A01 T02240161  RH  068%=      5-min Rain = 0
KMD1 170606Z 08002KT 22/16 A3002 RMK A01 T02230161  RH  068%=      5-min Rain = 0
KMD1 170607Z 09002KT 22/16 A3002 RMK A01 T02230160  RH  068%=      5-min Rain = 0
KMD1 170608Z 09001KT 22/16 A3002 RMK A01 T02230160  RH  067%=      5-min Rain = 0
KMD1 170609Z 09002KT 22/16 A3002 RMK A01 T02240160  RH  067%=      5-min Rain = 0
KMD1 170610Z 08001KT 23/16 A3002 RMK A01 T02250160  RH  067%=      5-min Rain = 0
KMD1 170611Z 07001KT 23/16 A3002 RMK A01 T02250160  RH  066%=      5-min Rain = 0
KMD1 170612Z 08001KT 23/16 A3002 RMK A01 T02260160  RH  066%=      5-min Rain = 0
KMD1 170613Z 09001KT 23/16 A3002 RMK A01 T02260160  RH  066%=      5-min Rain = 0
KMD1 170614Z 08001KT 23/16 A3002 RMK A01 T02260159  RH  066%=      5-min Rain = 0
KMD1 170615Z 08001KT 23/16 A3002 RMK A01 T02260159  RH  066%=      5-min Rain = 0
KMD1 170616Z 08001KT 23/16 A3002 RMK A01 T02260159  RH  066%=      5-min Rain = 0
KMD1 170617Z 08001KT 23/16 A3002 RMK A01 T02260159  RH  066%=      5-min Rain = 0
KMD1 170618Z 07001KT 23/16 A3002 RMK A01 T02260159  RH  066%=      5-min Rain = 0
KMD1 170619Z 08000KT 23/16 A3002 RMK A01 T02260159  RH  066%=      5-min Rain = 0
KMD1 170620Z 00000KT 23/16 A3002 RMK A01 T02270159  RH  066%=      5-min Rain = 0
KMD1 170621Z 00000KT 23/16 A3002 RMK A01 T02270159  RH  066%=      5-min Rain = 0
KMD1 170622Z 00000KT 23/16 A3002 RMK A01 T02260159  RH  066%=      5-min Rain = 0
KMD1 170623Z 00000KT 23/16 A3002 RMK A01 T02250159  RH  066%=      5-min Rain = 0
KMD1 170624Z 00000KT 23/16 A3002 RMK A01 T02250159  RH  066%=      5-min Rain = 0
KMD1 170625Z 00000KT 22/16 A3002 RMK A01 T02240158  RH  066%=      5-min Rain = 0
KMD1 170626Z 00000KT 22/16 A3002 RMK A01 T02220158  RH  067%=      5-min Rain = 0
KMD1 170627Z 00000KT 22/16 A3002 RMK A01 T02210159  RH  068%=      5-min Rain = 0
KMD1 170628Z 00000KT 22/16 A3002 RMK A01 T02200159  RH  069%=      5-min Rain = 0
KMD1 170629Z 00000KT 22/16 A3002 RMK A01 T02190160  RH  069%=      5-min Rain = 0
KMD1 170630Z 00000KT 22/16 A3002 RMK A01 T02190160  RH  069%=      5-min Rain = 0
KMD1 170631Z 00000KT 22/16 A3002 RMK A01 T02190159  RH  069%=      5-min Rain = 0
KMD1 170632Z 00000KT 22/16 A3002 RMK A01 T02190160  RH  069%=      5-min Rain = 0
KMD1 170633Z 05000KT 22/16 A3002 RMK A01 T02190160  RH  069%=      5-min Rain = 0
KMD1 170634Z 05001KT 22/16 A3002 RMK A01 T02180159  RH  069%=      5-min Rain = 0
KMD1 170635Z 06001KT 22/16 A3002 RMK A01 T02180158  RH  069%=      5-min Rain = 0
KMD1 170636Z 07001KT 22/16 A3002 RMK A01 T02190159  RH  069%=      5-min Rain = 0
KMD1 170637Z 05001KT 22/16 A3002 RMK A01 T02190159  RH  069%=      5-min Rain = 0
KMD1 170638Z 06001KT 22/16 A3002 RMK A01 T02180158  RH  069%=      5-min Rain = 0
KMD1 170639Z 05001KT 22/16 A3002 RMK A01 T02180158  RH  069%=      5-min Rain = 0
KMD1 170640Z 05001KT 22/16 A3002 RMK A01 T02180159  RH  069%=      5-min Rain = 0
KMD1 170641Z 04001KT 22/16 A3002 RMK A01 T02170159  RH  069%=      5-min Rain = 0
KMD1 170642Z 04002KT 22/16 A3002 RMK A01 T02180160  RH  070%=      5-min Rain = 0
KMD1 170643Z 05001KT 22/16 A3002 RMK A01 T02160162  RH  071%=      5-min Rain = 0
KMD1 170644Z 06002KT 21/16 A3002 RMK A01 T02140162  RH  072%=      5-min Rain = 0
KMD1 170645Z 06002KT 21/17 A3002 RMK A01 T02120165  RH  075%=      5-min Rain = 0
KMD1 170646Z 05002KT 21/16 A3002 RMK A01 T02110164  RH  075%=      5-min Rain = 0
KMD1 170647Z 05001KT 21/16 A3002 RMK A01 T02100164  RH  075%=      5-min Rain = 0
KMD1 170648Z 05001KT 21/16 A3002 RMK A01 T02090164  RH  076%=      5-min Rain = 0
KMD1 170649Z 05001KT 21/16 A3002 RMK A01 T02080164  RH  076%=      5-min Rain = 0
KMD1 170650Z 06001KT 21/16 A3002 RMK A01 T02070163  RH  076%=      5-min Rain = 0
KMD1 170651Z 06001KT 21/16 A3002 RMK A01 T02070163  RH  076%=      5-min Rain = 0
KMD1 170652Z 06000KT 21/16 A3002 RMK A01 T02070164  RH  076%=      5-min Rain = 0
KMD1 170653Z 00000KT 21/16 A3002 RMK A01 T02070164  RH  076%=      5-min Rain = 0
KMD1 170654Z 00000KT 21/16 A3002 RMK A01 T02070164  RH  076%=      5-min Rain = 0
KMD1 170655Z 00000KT 21/16 A3002 RMK A01 T02080163  RH  076%=      5-min Rain = 0
KMD1 170656Z 00000KT 21/16 A3002 RMK A01 T02080163  RH  075%=      5-min Rain = 0
KMD1 170657Z 00000KT 21/16 A3002 RMK A01 T02090162  RH  074%=      5-min Rain = 0
KMD1 170658Z 06000KT 21/16 A3002 RMK A01 T02100161  RH  073%=      5-min Rain = 0
KMD1 170659Z 04001KT 21/16 A3002 RMK A01 T02120160  RH  073%=      5-min Rain = 0
KMD1 170700Z 04001KT 21/16 A3002 RMK A01 T02130161  RH  072%=      5-min Rain = 0
KMD1 170701Z 03001KT 21/16 A3002 RMK A01 T02140161  RH  072%=      5-min Rain = 0
KMD1 170702Z 03001KT 21/16 A3002 RMK A01 T02140160  RH  071%=      5-min Rain = 0
KMD1 170703Z 04001KT 21/16 A3002 RMK A01 T02130160  RH  071%=      5-min Rain = 0
KMD1 170704Z 03001KT 21/16 A3002 RMK A01 T02120160  RH  072%=      5-min Rain = 0
KMD1 170705Z 03001KT 21/16 A3002 RMK A01 T02110160  RH  072%=      5-min Rain = 0
KMD1 170706Z 02001KT 21/16 A3002 RMK A01 T02110160  RH  072%=      5-min Rain = 0
KMD1 170707Z 01000KT 21/16 A3002 RMK A01 T02110159  RH  072%=      5-min Rain = 0
KMD1 170708Z 01000KT 21/16 A3002 RMK A01 T02110159  RH  072%=      5-min Rain = 0
KMD1 170709Z 02000KT 21/16 A3002 RMK A01 T02100159  RH  072%=      5-min Rain = 0
KMD1 170710Z 02001KT 21/16 A3002 RMK A01 T02100159  RH  072%=      5-min Rain = 0
KMD1 170711Z 02001KT 21/16 A3002 RMK A01 T02100159  RH  072%=      5-min Rain = 0
KMD1 170712Z 03001KT 21/16 A3001 RMK A01 T02100159  RH  072%=      5-min Rain = 0
KMD1 170713Z 04002KT 21/16 A3001 RMK A01 T02090159  RH  073%=      5-min Rain = 0
KMD1 170714Z 03002KT 21/16 A3002 RMK A01 T02100159  RH  073%=      5-min Rain = 0
KMD1 170715Z 03002KT 21/16 A3002 RMK A01 T02090160  RH  074%=      5-min Rain = 0
KMD1 170716Z 03002KT 21/16 A3002 RMK A01 T02080161  RH  074%=      5-min Rain = 0
KMD1 170717Z 04001KT 21/16 A3002 RMK A01 T02080161  RH  074%=      5-min Rain = 0
KMD1 170718Z 04001KT 21/16 A3002 RMK A01 T02070161  RH  075%=      5-min Rain = 0
KMD1 170719Z 03001KT 21/16 A3002 RMK A01 T02070161  RH  075%=      5-min Rain = 0
KMD1 170720Z 02001KT 21/16 A3002 RMK A01 T02060160  RH  075%=      5-min Rain = 0
KMD1 170721Z 02001KT 21/16 A3002 RMK A01 T02060161  RH  075%=      5-min Rain = 0
KMD1 170722Z 02001KT 21/16 A3002 RMK A01 T02050160  RH  075%=      5-min Rain = 0
KMD1 170723Z 02001KT 21/16 A3002 RMK A01 T02050160  RH  075%=      5-min Rain = 0
KMD1 170724Z 01001KT 20/16 A3002 RMK A01 T02040159  RH  075%=      5-min Rain = 0
KMD1 170725Z 02002KT 20/16 A3002 RMK A01 T02040159  RH  075%=      5-min Rain = 0
KMD1 170726Z 03001KT 20/16 A3002 RMK A01 T02040158  RH  075%=      5-min Rain = 0
KMD1 170727Z 04001KT 20/16 A3002 RMK A01 T02040158  RH  075%=      5-min Rain = 0
KMD1 170728Z 03002KT 20/16 A3002 RMK A01 T02030158  RH  075%=      5-min Rain = 0
KMD1 170729Z 04002KT 20/16 A3002 RMK A01 T02040157  RH  075%=      5-min Rain = 0
KMD1 170730Z 04002KT 20/16 A3002 RMK A01 T02030157  RH  075%=      5-min Rain = 0
KMD1 170731Z 04001KT 20/16 A3002 RMK A01 T02030158  RH  075%=      5-min Rain = 0
KMD1 170732Z 03001KT 20/16 A3002 RMK A01 T02020158  RH  076%=      5-min Rain = 0
KMD1 170733Z 03001KT 20/16 A3002 RMK A01 T02020158  RH  076%=      5-min Rain = 0
KMD1 170734Z 03001KT 20/16 A3002 RMK A01 T02010158  RH  076%=      5-min Rain = 0
KMD1 170735Z 02001KT 20/16 A3002 RMK A01 T02020159  RH  076%=      5-min Rain = 0
KMD1 170736Z 02001KT 20/16 A3002 RMK A01 T02010159  RH  077%=      5-min Rain = 0
KMD1 170737Z 02001KT 20/16 A3002 RMK A01 T02010158  RH  077%=      5-min Rain = 0
KMD1 170738Z 03001KT 20/16 A3002 RMK A01 T02000158  RH  076%=      5-min Rain = 0
KMD1 170739Z 03001KT 20/16 A3002 RMK A01 T02000157  RH  076%=      5-min Rain = 0
KMD1 170740Z 05002KT 20/16 A3002 RMK A01 T02000157  RH  076%=      5-min Rain = 0
KMD1 170741Z 06002KT 20/16 A3002 RMK A01 T02000158  RH  077%=      5-min Rain = 0
KMD1 170742Z 06003KT 20/16 A3002 RMK A01 T02000160  RH  078%=      5-min Rain = 0
KMD1 170743Z 06003KT 20/16 A3002 RMK A01 T01990160  RH  078%=      5-min Rain = 0
KMD1 170744Z 06003KT 20/16 A3002 RMK A01 T01980161  RH  079%=      5-min Rain = 0
KMD1 170745Z 06002KT 20/16 A3002 RMK A01 T01970162  RH  080%=      5-min Rain = 0
KMD1 170746Z 06001KT 20/16 A3002 RMK A01 T01960163  RH  081%=      5-min Rain = 0
KMD1 170747Z 04000KT 20/16 A3002 RMK A01 T01950163  RH  082%=      5-min Rain = 0
KMD1 170748Z 00000KT 20/16 A3002 RMK A01 T01950163  RH  082%=      5-min Rain = 0
KMD1 170749Z 00000KT 20/16 A3002 RMK A01 T01950163  RH  082%=      5-min Rain = 0
KMD1 170750Z 09001KT 20/16 A3002 RMK A01 T01950164  RH  082%=      5-min Rain = 0
KMD1 170751Z 08002KT 20/16 A3002 RMK A01 T01950164  RH  082%=      5-min Rain = 0
KMD1 170752Z 09001KT 20/16 A3002 RMK A01 T01950164  RH  082%=      5-min Rain = 0
KMD1 170753Z 08000KT 19/16 A3002 RMK A01 T01940163  RH  082%=      5-min Rain = 0
KMD1 170754Z 02000KT 19/16 A3002 RMK A01 T01940163  RH  082%=      5-min Rain = 0
KMD1 170755Z 03001KT 19/16 A3002 RMK A01 T01940162  RH  082%=      5-min Rain = 0
KMD1 170756Z 02001KT 19/16 A3002 RMK A01 T01940162  RH  082%=      5-min Rain = 0
KMD1 170757Z 02001KT 19/16 A3002 RMK A01 T01940162  RH  082%=      5-min Rain = 0
KMD1 170758Z 01000KT 19/16 A3002 RMK A01 T01940162  RH  082%=      5-min Rain = 0
KMD1 170759Z 00000KT 19/16 A3002 RMK A01 T01940162  RH  081%=      5-min Rain = 0
KMD1 170800Z 00000KT 20/16 A3002 RMK A01 T01950161  RH  081%=      5-min Rain = 0
KMD1 170801Z 00000KT 20/16 A3002 RMK A01 T01950161  RH  081%=      5-min Rain = 0
KMD1 170802Z 00000KT 20/16 A3002 RMK A01 T01950161  RH  081%=      5-min Rain = 0
KMD1 170803Z 00000KT 20/16 A3002 RMK A01 T01950160  RH  080%=      5-min Rain = 0
KMD1 170804Z 00000KT 20/16 A3002 RMK A01 T01950157  RH  078%=      5-min Rain = 0
KMD1 170805Z 00000KT 20/15 A3002 RMK A01 T01950153  RH  077%=      5-min Rain = 0
KMD1 170806Z 04000KT 20/15 A3002 RMK A01 T01950152  RH  076%=      5-min Rain = 0
KMD1 170807Z 03001KT 20/15 A3002 RMK A01 T01950151  RH  076%=      5-min Rain = 0
KMD1 170808Z 05001KT 20/15 A3002 RMK A01 T01950152  RH  076%=      5-min Rain = 0
KMD1 170809Z 04002KT 19/15 A3002 RMK A01 T01940151  RH  076%=      5-min Rain = 0
KMD1 170810Z 02001KT 19/15 A3002 RMK A01 T01940152  RH  077%=      5-min Rain = 0
KMD1 170811Z 01001KT 19/15 A3002 RMK A01 T01930154  RH  078%=      5-min Rain = 0
KMD1 170812Z 34001KT 19/16 A3002 RMK A01 T01930160  RH  081%=      5-min Rain = 0
KMD1 170813Z 34001KT 19/16 A3002 RMK A01 T01930160  RH  081%=      5-min Rain = 0
KMD1 170814Z 36001KT 19/16 A3002 RMK A01 T01930159  RH  081%=      5-min Rain = 0
KMD1 170815Z 01001KT 19/16 A3002 RMK A01 T01930158  RH  080%=      5-min Rain = 0
KMD1 170816Z 03001KT 19/16 A3002 RMK A01 T01930159  RH  081%=      5-min Rain = 0
KMD1 170817Z 03002KT 19/16 A3002 RMK A01 T01930159  RH  081%=      5-min Rain = 0
KMD1 170818Z 01002KT 19/16 A3002 RMK A01 T01940160  RH  080%=      5-min Rain = 0
KMD1 170819Z 02002KT 20/16 A3002 RMK A01 T01960159  RH  079%=      5-min Rain = 0
KMD1 170820Z 01001KT 20/16 A3002 RMK A01 T01960158  RH  079%=      5-min Rain = 0
KMD1 170821Z 03001KT 20/16 A3002 RMK A01 T01950158  RH  079%=      5-min Rain = 0
KMD1 170822Z 03001KT 20/16 A3002 RMK A01 T01950159  RH  079%=      5-min Rain = 0
KMD1 170823Z 03002KT 20/16 A3002 RMK A01 T01950158  RH  079%=      5-min Rain = 0
KMD1 170824Z 04002KT 20/16 A3002 RMK A01 T01950157  RH  079%=      5-min Rain = 0
KMD1 170825Z 04003KT 20/16 A3002 RMK A01 T01950157  RH  079%=      5-min Rain = 0
KMD1 170826Z 04003KT 19/16 A3002 RMK A01 T01940157  RH  079%=      5-min Rain = 0
KMD1 170827Z 05003KT 19/16 A3002 RMK A01 T01930158  RH  080%=      5-min Rain = 0
KMD1 170828Z 06003KT 19/16 A3002 RMK A01 T01920158  RH  081%=      5-min Rain = 0
KMD1 170829Z 06003KT 19/16 A3002 RMK A01 T01910158  RH  081%=      5-min Rain = 0
KMD1 170830Z 06003KT 19/16 A3002 RMK A01 T01910158  RH  081%=      5-min Rain = 0
KMD1 170831Z 05003KT 19/16 A3002 RMK A01 T01910158  RH  081%=      5-min Rain = 0
KMD1 170832Z 06003KT 19/16 A3002 RMK A01 T01900160  RH  082%=      5-min Rain = 0
KMD1 170833Z 06003KT 19/16 A3002 RMK A01 T01900161  RH  083%=      5-min Rain = 0
KMD1 170834Z 07003KT 19/16 A3002 RMK A01 T01900161  RH  083%=      5-min Rain = 0
KMD1 170835Z 07003KT 19/16 A3002 RMK A01 T01890161  RH  084%=      5-min Rain = 0
KMD1 170836Z 08003KT 19/16 A3002 RMK A01 T01890161  RH  083%=      5-min Rain = 0
KMD1 170837Z 08003KT 19/16 A3002 RMK A01 T01890160  RH  083%=      5-min Rain = 0
KMD1 170838Z 08003KT 19/16 A3002 RMK A01 T01900160  RH  083%=      5-min Rain = 0
KMD1 170839Z 08003KT 19/16 A3002 RMK A01 T01910159  RH  082%=      5-min Rain = 0
KMD1 170840Z 07003KT 19/16 A3002 RMK A01 T01910159  RH  081%=      5-min Rain = 0
KMD1 170841Z 06004KT 19/16 A3002 RMK A01 T01920158  RH  081%=      5-min Rain = 0
KMD1 170842Z 05003KT 19/16 A3002 RMK A01 T01920158  RH  081%=      5-min Rain = 0
KMD1 170843Z 05003KT 19/16 A3002 RMK A01 T01910158  RH  081%=      5-min Rain = 0
KMD1 170844Z 06003KT 19/16 A3002 RMK A01 T01900158  RH  081%=      5-min Rain = 0
KMD1 170845Z 06002KT 19/16 A3002 RMK A01 T01900158  RH  081%=      5-min Rain = 0
KMD1 170846Z 06002KT 19/16 A3002 RMK A01 T01900157  RH  081%=      5-min Rain = 0
KMD1 170847Z 06002KT 19/16 A3002 RMK A01 T01910157  RH  081%=      5-min Rain = 0
KMD1 170848Z 06002KT 19/16 A3002 RMK A01 T01910157  RH  080%=      5-min Rain = 0
KMD1 170849Z 05002KT 19/16 A3002 RMK A01 T01920157  RH  080%=      5-min Rain = 0
KMD1 170850Z 05002KT 19/16 A3002 RMK A01 T01930157  RH  079%=      5-min Rain = 0
KMD1 170851Z 05002KT 20/16 A3002 RMK A01 T01950157  RH  079%=      5-min Rain = 0
KMD1 170852Z 05002KT 20/16 A3002 RMK A01 T01960156  RH  078%=      5-min Rain = 0
KMD1 170853Z 05003KT 20/16 A3002 RMK A01 T01980157  RH  077%=      5-min Rain = 0
KMD1 170854Z 05003KT 20/16 A3002 RMK A01 T02000157  RH  076%=      5-min Rain = 0
KMD1 170855Z 05004KT 20/16 A3002 RMK A01 T02010156  RH  076%=      5-min Rain = 0
KMD1 170856Z 06004KT 20/16 A3002 RMK A01 T02000156  RH  076%=      5-min Rain = 0
KMD1 170857Z 06003KT 20/16 A3002 RMK A01 T02000156  RH  076%=      5-min Rain = 0
KMD1 170858Z 05003KT 20/16 A3002 RMK A01 T01980156  RH  077%=      5-min Rain = 0
KMD1 170859Z 05002KT 20/16 A3002 RMK A01 T01960156  RH  078%=      5-min Rain = 0
KMD1 170900Z 05002KT 20/16 A3001 RMK A01 T01950157  RH  078%=      5-min Rain = 0
KMD1 170901Z 06002KT 19/16 A3001 RMK A01 T01940157  RH  079%=      5-min Rain = 0
KMD1 170902Z 07002KT 19/16 A3001 RMK A01 T01940157  RH  079%=      5-min Rain = 0
KMD1 170903Z 07002KT 20/16 A3001 RMK A01 T01950157  RH  079%=      5-min Rain = 0
KMD1 170904Z 07003KT 20/16 A3001 RMK A01 T01950157  RH  078%=      5-min Rain = 0
KMD1 170905Z 07003KT 20/16 A3001 RMK A01 T01970157  RH  078%=      5-min Rain = 0
KMD1 170906Z 06003KT 20/16 A3001 RMK A01 T01990157  RH  077%=      5-min Rain = 0
KMD1 170907Z 06003KT 20/16 A3001 RMK A01 T02010157  RH  076%=      5-min Rain = 0
KMD1 170908Z 06002KT 20/16 A3001 RMK A01 T02010156  RH  076%=      5-min Rain = 0
KMD1 170909Z 05002KT 20/16 A3001 RMK A01 T02000157  RH  076%=      5-min Rain = 0
KMD1 170910Z 05002KT 20/16 A3001 RMK A01 T02000157  RH  076%=      5-min Rain = 0
KMD1 170911Z 05002KT 20/16 A3001 RMK A01 T02000157  RH  076%=      5-min Rain = 0
KMD1 170912Z 06003KT 20/16 A3001 RMK A01 T02000157  RH  076%=      5-min Rain = 0
KMD1 170913Z 06005KT 20/16 A3001 RMK A01 T02000156  RH  076%=      5-min Rain = 0
KMD1 170914Z 06005KT 20/16 A3001 RMK A01 T01990156  RH  076%=      5-min Rain = 0
KMD1 170915Z 06004KT 20/16 A3001 RMK A01 T01970157  RH  078%=      5-min Rain = 0
KMD1 170916Z 06003KT 20/16 A3001 RMK A01 T01950158  RH  079%=      5-min Rain = 0
KMD1 170917Z 07002KT 19/16 A3001 RMK A01 T01930158  RH  080%=      5-min Rain = 0
KMD1 170918Z 08000KT 19/16 A3001 RMK A01 T01920157  RH  080%=      5-min Rain = 0
KMD1 170919Z 00000KT 19/16 A3001 RMK A01 T01930158  RH  081%=      5-min Rain = 0
KMD1 170920Z 04000KT 19/16 A3001 RMK A01 T01920158  RH  080%=      5-min Rain = 0
KMD1 170921Z 05001KT 19/16 A3001 RMK A01 T01920158  RH  080%=      5-min Rain = 0
KMD1 170922Z 05002KT 19/16 A3001 RMK A01 T01930158  RH  080%=      5-min Rain = 0
KMD1 170923Z 06003KT 19/16 A3001 RMK A01 T01930157  RH  079%=      5-min Rain = 0
KMD1 170924Z 07003KT 19/16 A3001 RMK A01 T01940157  RH  079%=      5-min Rain = 0
KMD1 170925Z 06003KT 20/16 A3001 RMK A01 T01950157  RH  079%=      5-min Rain = 0
KMD1 170926Z 05002KT 20/16 A3001 RMK A01 T01950157  RH  078%=      5-min Rain = 0
KMD1 170927Z 05002KT 20/16 A3001 RMK A01 T01960157  RH  078%=      5-min Rain = 0
KMD1 170928Z 04001KT 20/16 A3001 RMK A01 T01960157  RH  078%=      5-min Rain = 0
KMD1 170929Z 03000KT 20/16 A3001 RMK A01 T01960156  RH  078%=      5-min Rain = 0
KMD1 170930Z 02001KT 20/16 A3001 RMK A01 T01950156  RH  078%=      5-min Rain = 0
KMD1 170931Z 04001KT 20/16 A3001 RMK A01 T01950156  RH  078%=      5-min Rain = 0
KMD1 170932Z 04002KT 20/16 A3001 RMK A01 T01960156  RH  078%=      5-min Rain = 0
KMD1 170933Z 05003KT 20/16 A3001 RMK A01 T01960156  RH  078%=      5-min Rain = 0
KMD1 170934Z 06003KT 20/16 A3001 RMK A01 T01960156  RH  077%=      5-min Rain = 0
KMD1 170935Z 06003KT 20/16 A3001 RMK A01 T01960156  RH  077%=      5-min Rain = 0
KMD1 170936Z 06003KT 20/16 A3001 RMK A01 T01960156  RH  078%=      5-min Rain = 0
KMD1 170937Z 06003KT 20/16 A3001 RMK A01 T01960156  RH  078%=      5-min Rain = 0
KMD1 170938Z 08002KT 19/16 A3001 RMK A01 T01940155  RH  078%=      5-min Rain = 0
KMD1 170939Z 08003KT 19/16 A3001 RMK A01 T01930156  RH  079%=      5-min Rain = 0
KMD1 170940Z 09003KT 19/16 A3001 RMK A01 T01920156  RH  080%=      5-min Rain = 0
KMD1 170941Z 09004KT 19/16 A3001 RMK A01 T01920156  RH  080%=      5-min Rain = 0
KMD1 170942Z 09004KT 19/16 A3001 RMK A01 T01920157  RH  080%=      5-min Rain = 0
KMD1 170943Z 09004KT 19/16 A3001 RMK A01 T01910157  RH  080%=      5-min Rain = 0
KMD1 170944Z 09004KT 19/16 A3001 RMK A01 T01910156  RH  080%=      5-min Rain = 0
KMD1 170945Z 09004KT 19/16 A3001 RMK A01 T01890155  RH  081%=      5-min Rain = 0
KMD1 170946Z 09004KT 19/16 A3001 RMK A01 T01880156  RH  082%=      5-min Rain = 0
KMD1 170947Z 10003KT 19/16 A3001 RMK A01 T01870156  RH  082%=      5-min Rain = 0
KMD1 170948Z 10003KT 19/16 A3001 RMK A01 T01880156  RH  082%=      5-min Rain = 0
KMD1 170949Z 10003KT 19/16 A3002 RMK A01 T01870156  RH  082%=      5-min Rain = 0
KMD1 170950Z 10003KT 19/16 A3002 RMK A01 T01870156  RH  082%=      5-min Rain = 0
KMD1 170951Z 10003KT 19/16 A3002 RMK A01 T01880156  RH  082%=      5-min Rain = 0
KMD1 170952Z 10002KT 19/16 A3002 RMK A01 T01880156  RH  082%=      5-min Rain = 0
KMD1 170953Z 09001KT 19/16 A3001 RMK A01 T01880156  RH  082%=      5-min Rain = 0
KMD1 170954Z 00000KT 19/16 A3002 RMK A01 T01880156  RH  082%=      5-min Rain = 0
KMD1 170955Z 00000KT 19/16 A3002 RMK A01 T01880156  RH  082%=      5-min Rain = 0
KMD1 170956Z 00000KT 19/16 A3002 RMK A01 T01890156  RH  081%=      5-min Rain = 0
KMD1 170957Z 00000KT 19/16 A3002 RMK A01 T01890156  RH  081%=      5-min Rain = 0
KMD1 170958Z 07001KT 19/16 A3002 RMK A01 T01900156  RH  081%=      5-min Rain = 0
KMD1 170959Z 08001KT 19/16 A3002 RMK A01 T01900156  RH  081%=      5-min Rain = 0
KMD1 171000Z 12000KT 19/16 A3002 RMK A01 T01900157  RH  081%=      5-min Rain = 0
KMD1 171001Z 12000KT 19/16 A3002 RMK A01 T01910157  RH  080%=      5-min Rain = 0
KMD1 171002Z 12000KT 19/16 A3002 RMK A01 T01920157  RH  080%=      5-min Rain = 0
KMD1 171003Z 10001KT 19/16 A3002 RMK A01 T01930157  RH  080%=      5-min Rain = 0
KMD1 171004Z 10002KT 19/16 A3002 RMK A01 T01930157  RH  079%=      5-min Rain = 0
KMD1 171005Z 10003KT 19/16 A3002 RMK A01 T01940157  RH  079%=      5-min Rain = 0
KMD1 171006Z 09003KT 20/16 A3002 RMK A01 T01950157  RH  078%=      5-min Rain = 0
KMD1 171007Z 09003KT 20/16 A3002 RMK A01 T01970157  RH  078%=      5-min Rain = 0
KMD1 171008Z 09003KT 20/16 A3002 RMK A01 T01970157  RH  078%=      5-min Rain = 0
KMD1 171009Z 09003KT 20/16 A3002 RMK A01 T01980157  RH  077%=      5-min Rain = 0
KMD1 171010Z 09002KT 20/16 A3002 RMK A01 T01980157  RH  077%=      5-min Rain = 0
KMD1 171011Z 09002KT 20/16 A3002 RMK A01 T01980156  RH  077%=      5-min Rain = 0
KMD1 171012Z 09002KT 20/16 A3002 RMK A01 T01970156  RH  077%=      5-min Rain = 0
KMD1 171013Z 09001KT 20/16 A3002 RMK A01 T01960156  RH  077%=      5-min Rain = 0
KMD1 171014Z 09001KT 20/16 A3002 RMK A01 T01950156  RH  078%=      5-min Rain = 0
KMD1 171015Z 06000KT 19/15 A3002 RMK A01 T01930154  RH  078%=      5-min Rain = 0
KMD1 171016Z 00000KT 19/15 A3002 RMK A01 T01920154  RH  078%=      5-min Rain = 0
KMD1 171017Z 01000KT 19/15 A3002 RMK A01 T01910154  RH  079%=      5-min Rain = 0
KMD1 171018Z 00000KT 19/15 A3002 RMK A01 T01900153  RH  079%=      5-min Rain = 0
KMD1 171019Z 04000KT 19/15 A3002 RMK A01 T01890153  RH  079%=      5-min Rain = 0
KMD1 171020Z 03000KT 19/15 A3002 RMK A01 T01890154  RH  080%=      5-min Rain = 0
KMD1 171021Z 09000KT 19/15 A3002 RMK A01 T01890154  RH  080%=      5-min Rain = 0
KMD1 171022Z 09001KT 19/16 A3002 RMK A01 T01890155  RH  081%=      5-min Rain = 0
KMD1 171023Z 09001KT 19/16 A3002 RMK A01 T01890155  RH  081%=      5-min Rain = 0
KMD1 171024Z 10001KT 19/16 A3002 RMK A01 T01890156  RH  081%=      5-min Rain = 0
KMD1 171025Z 10001KT 19/16 A3002 RMK A01 T01890156  RH  081%=      5-min Rain = 0
KMD1 171026Z 10001KT 19/16 A3002 RMK A01 T01890156  RH  082%=      5-min Rain = 0
KMD1 171027Z 10001KT 19/16 A3002 RMK A01 T01890157  RH  082%=      5-min Rain = 0
KMD1 171028Z 09002KT 19/16 A3002 RMK A01 T01880157  RH  082%=      5-min Rain = 0
KMD1 171029Z 08002KT 19/16 A3002 RMK A01 T01880156  RH  082%=      5-min Rain = 0
KMD1 171030Z 07001KT 19/16 A3002 RMK A01 T01870156  RH  082%=      5-min Rain = 0
KMD1 171031Z 07000KT 19/16 A3002 RMK A01 T01870156  RH  082%=      5-min Rain = 0
KMD1 171032Z 00000KT 19/16 A3002 RMK A01 T01870155  RH  082%=      5-min Rain = 0
KMD1 171033Z 00000KT 19/16 A3002 RMK A01 T01860155  RH  082%=      5-min Rain = 0
KMD1 171034Z 00000KT 19/15 A3002 RMK A01 T01860154  RH  082%=      5-min Rain = 0
KMD1 171035Z 00000KT 19/15 A3003 RMK A01 T01850154  RH  082%=      5-min Rain = 0
KMD1 171036Z 00000KT 19/15 A3003 RMK A01 T01850154  RH  082%=      5-min Rain = 0
KMD1 171037Z 00000KT 18/15 A3003 RMK A01 T01840153  RH  082%=      5-min Rain = 0
KMD1 171038Z 00000KT 18/15 A3003 RMK A01 T01840154  RH  082%=      5-min Rain = 0
KMD1 171039Z 00000KT 18/15 A3003 RMK A01 T01840154  RH  083%=      5-min Rain = 0
KMD1 171040Z 00000KT 18/16 A3003 RMK A01 T01840155  RH  083%=      5-min Rain = 0
KMD1 171041Z 00000KT 18/16 A3003 RMK A01 T01840155  RH  083%=      5-min Rain = 0
KMD1 171042Z 00000KT 18/15 A3003 RMK A01 T01840154  RH  083%=      5-min Rain = 0
KMD1 171043Z 00000KT 18/15 A3003 RMK A01 T01840154  RH  083%=      5-min Rain = 0
KMD1 171044Z 00000KT 18/15 A3003 RMK A01 T01840154  RH  083%=      5-min Rain = 0
KMD1 171045Z 00000KT 18/15 A3003 RMK A01 T01840154  RH  083%=      5-min Rain = 0
KMD1 171046Z 00000KT 18/15 A3003 RMK A01 T01840154  RH  083%=      5-min Rain = 0
KMD1 171047Z 00000KT 18/15 A3003 RMK A01 T01840154  RH  083%=      5-min Rain = 0
KMD1 171048Z 00000KT 18/15 A3003 RMK A01 T01830153  RH  083%=      5-min Rain = 0
KMD1 171049Z 00000KT 18/15 A3003 RMK A01 T01820151  RH  082%=      5-min Rain = 0
KMD1 171050Z 00000KT 18/15 A3003 RMK A01 T01820151  RH  082%=      5-min Rain = 0
KMD1 171051Z 00000KT 18/15 A3003 RMK A01 T01820152  RH  083%=      5-min Rain = 0
KMD1 171052Z 00000KT 18/15 A3003 RMK A01 T01810151  RH  082%=      5-min Rain = 0
KMD1 171053Z 00000KT 18/15 A3003 RMK A01 T01810150  RH  082%=      5-min Rain = 0
KMD1 171054Z 00000KT 18/15 A3003 RMK A01 T01800150  RH  083%=      5-min Rain = 0
KMD1 171055Z 00000KT 18/15 A3003 RMK A01 T01800151  RH  083%=      5-min Rain = 0
KMD1 171056Z 00000KT 18/15 A3003 RMK A01 T01800151  RH  083%=      5-min Rain = 0
KMD1 171057Z 00000KT 18/15 A3003 RMK A01 T01800152  RH  084%=      5-min Rain = 0
KMD1 171058Z 00000KT 18/15 A3003 RMK A01 T01800152  RH  084%=      5-min Rain = 0
KMD1 171059Z 00000KT 18/15 A3003 RMK A01 T01800152  RH  084%=      5-min Rain = 0
KMD1 171100Z 00000KT 18/15 A3003 RMK A01 T01800152  RH  084%=      5-min Rain = 0
KMD1 171101Z 31000KT 18/15 A3003 RMK A01 T01790152  RH  084%=      5-min Rain = 0
KMD1 171102Z 31001KT 18/15 A3003 RMK A01 T01790152  RH  084%=      5-min Rain = 0
KMD1 171103Z 28001KT 18/15 A3003 RMK A01 T01790152  RH  084%=      5-min Rain = 0
KMD1 171104Z 27002KT 18/15 A3003 RMK A01 T01790153  RH  084%=      5-min Rain = 0
KMD1 171105Z 26002KT 18/15 A3003 RMK A01 T01790153  RH  084%=      5-min Rain = 0
KMD1 171106Z 26002KT 18/15 A3003 RMK A01 T01790152  RH  084%=      5-min Rain = 0
KMD1 171107Z 27002KT 18/15 A3003 RMK A01 T01790152  RH  084%=      5-min Rain = 0
KMD1 171108Z 26002KT 18/15 A3003 RMK A01 T01800153  RH  084%=      5-min Rain = 0
KMD1 171109Z 26003KT 18/15 A3003 RMK A01 T01800153  RH  084%=      5-min Rain = 0
KMD1 171110Z 26003KT 18/15 A3003 RMK A01 T01800153  RH  084%=      5-min Rain = 0
KMD1 171111Z 25002KT 18/15 A3003 RMK A01 T01800151  RH  083%=      5-min Rain = 0
KMD1 171112Z 26002KT 18/15 A3003 RMK A01 T01800151  RH  083%=      5-min Rain = 0
KMD1 171113Z 26002KT 18/15 A3003 RMK A01 T01800151  RH  083%=      5-min Rain = 0
KMD1 171114Z 26001KT 18/15 A3003 RMK A01 T01800152  RH  084%=      5-min Rain = 0
KMD1 171115Z 26000KT 18/15 A3003 RMK A01 T01790150  RH  083%=      5-min Rain = 0
KMD1 171116Z 00000KT 18/15 A3003 RMK A01 T01770150  RH  084%=      5-min Rain = 0
KMD1 171117Z 00000KT 18/15 A3003 RMK A01 T01770152  RH  085%=      5-min Rain = 0
KMD1 171118Z 00000KT 18/15 A3003 RMK A01 T01770152  RH  085%=      5-min Rain = 0
KMD1 171119Z 00000KT 18/15 A3003 RMK A01 T01770152  RH  085%=      5-min Rain = 0
KMD1 171120Z 00000KT 18/15 A3003 RMK A01 T01770152  RH  085%=      5-min Rain = 0
KMD1 171121Z 00000KT 18/15 A3003 RMK A01 T01770152  RH  085%=      5-min Rain = 0
KMD1 171122Z 00000KT 18/15 A3003 RMK A01 T01770152  RH  085%=      5-min Rain = 0
KMD1 171123Z 00000KT 18/15 A3003 RMK A01 T01770152  RH  085%=      5-min Rain = 0
KMD1 171124Z 00000KT 18/15 A3003 RMK A01 T01770152  RH  085%=      5-min Rain = 0
KMD1 171125Z 00000KT 18/15 A3004 RMK A01 T01770152  RH  086%=      5-min Rain = 0
KMD1 171126Z 05000KT 18/15 A3003 RMK A01 T01760152  RH  086%=      5-min Rain = 0
KMD1 171127Z 06001KT 18/15 A3003 RMK A01 T01760152  RH  086%=      5-min Rain = 0
KMD1 171128Z 07001KT 18/15 A3003 RMK A01 T01760152  RH  086%=      5-min Rain = 0
KMD1 171129Z 06001KT 18/15 A3004 RMK A01 T01750151  RH  086%=      5-min Rain = 0
KMD1 171130Z 04001KT 18/15 A3004 RMK A01 T01750151  RH  086%=      5-min Rain = 0
KMD1 171131Z 01001KT 17/15 A3004 RMK A01 T01740151  RH  087%=      5-min Rain = 0
KMD1 171132Z 01002KT 17/15 A3004 RMK A01 T01740152  RH  087%=      5-min Rain = 0
KMD1 171133Z 01002KT 17/15 A3004 RMK A01 T01740151  RH  087%=      5-min Rain = 0
KMD1 171134Z 01003KT 17/15 A3004 RMK A01 T01730151  RH  087%=      5-min Rain = 0
KMD1 171135Z 00003KT 17/15 A3003 RMK A01 T01730152  RH  087%=      5-min Rain = 0
KMD1 171136Z 00002KT 17/15 A3003 RMK A01 T01740152  RH  087%=      5-min Rain = 0
KMD1 171137Z 00002KT 17/15 A3003 RMK A01 T01740152  RH  087%=      5-min Rain = 0
KMD1 171138Z 01003KT 17/15 A3004 RMK A01 T01730152  RH  087%=      5-min Rain = 0
KMD1 171139Z 02005KT 17/15 A3004 RMK A01 T01730152  RH  087%=      5-min Rain = 0
KMD1 171140Z 02004KT 17/15 A3004 RMK A01 T01730152  RH  087%=      5-min Rain = 0
KMD1 171141Z 01004KT 17/15 A3004 RMK A01 T01730151  RH  087%=      5-min Rain = 0
KMD1 171142Z 01003KT 17/15 A3004 RMK A01 T01730152  RH  087%=      5-min Rain = 0
KMD1 171143Z 00002KT 17/15 A3003 RMK A01 T01730151  RH  087%=      5-min Rain = 0
KMD1 171144Z 01002KT 17/15 A3003 RMK A01 T01730151  RH  087%=      5-min Rain = 0
KMD1 171145Z 03002KT 17/15 A3003 RMK A01 T01730151  RH  087%=      5-min Rain = 0
KMD1 171146Z 03003KT 17/15 A3003 RMK A01 T01720151  RH  087%=      5-min Rain = 0
KMD1 171147Z 02003KT 17/15 A3003 RMK A01 T01720151  RH  087%=      5-min Rain = 0
KMD1 171148Z 02003KT 17/15 A3003 RMK A01 T01720151  RH  087%=      5-min Rain = 0
KMD1 171149Z 02002KT 17/15 A3003 RMK A01 T01710151  RH  088%=      5-min Rain = 0
KMD1 171150Z 01002KT 17/15 A3003 RMK A01 T01710151  RH  088%=      5-min Rain = 0
KMD1 171151Z 01002KT 17/15 A3003 RMK A01 T01710151  RH  088%=      5-min Rain = 0
KMD1 171152Z 01002KT 17/15 A3003 RMK A01 T01710151  RH  088%=      5-min Rain = 0
KMD1 171153Z 02002KT 17/15 A3003 RMK A01 T01710151  RH  088%=      5-min Rain = 0
KMD1 171154Z 02003KT 17/15 A3004 RMK A01 T01710151  RH  088%=      5-min Rain = 0
KMD1 171155Z 02003KT 17/15 A3003 RMK A01 T01710151  RH  088%=      5-min Rain = 0
KMD1 171156Z 03003KT 17/15 A3003 RMK A01 T01710151  RH  088%=      5-min Rain = 0
KMD1 171157Z 03003KT 17/15 A3004 RMK A01 T01710150  RH  087%=      5-min Rain = 0
KMD1 171158Z 03003KT 17/15 A3004 RMK A01 T01710150  RH  088%=      5-min Rain = 0
KMD1 171159Z 03002KT 17/15 A3004 RMK A01 T01710150  RH  088%=      5-min Rain = 0
KMD1 171200Z 03002KT 17/15 A3004 RMK A01 T01710151  RH  088%=      5-min Rain = 0
KMD1 171201Z 05001KT 17/15 A3004 RMK A01 T01710151  RH  088%=      5-min Rain = 0
KMD1 171202Z 03002KT 17/15 A3004 RMK A01 T01710152  RH  089%=      5-min Rain = 0
KMD1 171203Z 02002KT 17/15 A3004 RMK A01 T01710152  RH  089%=      5-min Rain = 0
KMD1 171204Z 01002KT 17/15 A3004 RMK A01 T01710151  RH  088%=      5-min Rain = 0
KMD1 171205Z 01002KT 17/15 A3004 RMK A01 T01710151  RH  088%=      5-min Rain = 0
KMD1 171206Z 01002KT 17/15 A3004 RMK A01 T01710151  RH  088%=      5-min Rain = 0
KMD1 171207Z 01002KT 17/15 A3004 RMK A01 T01710151  RH  088%=      5-min Rain = 0
KMD1 171208Z 01002KT 17/15 A3004 RMK A01 T01710151  RH  088%=      5-min Rain = 0
KMD1 171209Z 01002KT 17/15 A3004 RMK A01 T01710150  RH  088%=      5-min Rain = 0
KMD1 171210Z 01002KT 17/15 A3004 RMK A01 T01710150  RH  088%=      5-min Rain = 0
KMD1 171211Z 02002KT 17/15 A3004 RMK A01 T01710150  RH  087%=      5-min Rain = 0
KMD1 171212Z 02002KT 17/15 A3004 RMK A01 T01720151  RH  087%=      5-min Rain = 0
KMD1 171213Z 02002KT 17/15 A3004 RMK A01 T01730151  RH  087%=      5-min Rain = 0
KMD1 171214Z 02002KT 17/15 A3004 RMK A01 T01730151  RH  087%=      5-min Rain = 0
KMD1 171215Z 01002KT 17/15 A3004 RMK A01 T01730151  RH  087%=      5-min Rain = 0
KMD1 171216Z 02002KT 17/15 A3004 RMK A01 T01730151  RH  086%=      5-min Rain = 0
KMD1 171217Z 02002KT 17/15 A3004 RMK A01 T01740151  RH  086%=      5-min Rain = 0
KMD1 171218Z 01001KT 17/15 A3004 RMK A01 T01740151  RH  086%=      5-min Rain = 0
KMD1 171219Z 01002KT 17/15 A3004 RMK A01 T01740151  RH  086%=      5-min Rain = 0
KMD1 171220Z 02002KT 18/15 A3004 RMK A01 T01750151  RH  086%=      5-min Rain = 0
KMD1 171221Z 01002KT 18/15 A3004 RMK A01 T01750150  RH  086%=      5-min Rain = 0
KMD1 171222Z 01002KT 18/15 A3004 RMK A01 T01750150  RH  086%=      5-min Rain = 0
KMD1 171223Z 01001KT 18/15 A3004 RMK A01 T01750151  RH  086%=      5-min Rain = 0
KMD1 171224Z 01001KT 18/15 A3004 RMK A01 T01750151  RH  086%=      5-min Rain = 0
KMD1 171225Z 02002KT 18/15 A3004 RMK A01 T01750151  RH  086%=      5-min Rain = 0
KMD1 171226Z 01002KT 17/15 A3004 RMK A01 T01740150  RH  086%=      5-min Rain = 0
KMD1 171227Z 01002KT 17/15 A3004 RMK A01 T01740150  RH  086%=      5-min Rain = 0
KMD1 171228Z 00001KT 17/15 A3004 RMK A01 T01730150  RH  086%=      5-min Rain = 0
KMD1 171229Z 01002KT 17/15 A3004 RMK A01 T01730150  RH  086%=      5-min Rain = 0
KMD1 171230Z 00002KT 17/15 A3004 RMK A01 T01730150  RH  087%=      5-min Rain = 0
KMD1 171231Z 35002KT 17/15 A3004 RMK A01 T01730150  RH  087%=      5-min Rain = 0
KMD1 171232Z 35002KT 17/15 A3004 RMK A01 T01730150  RH  087%=      5-min Rain = 0
KMD1 171233Z 34002KT 17/15 A3004 RMK A01 T01730150  RH  087%=      5-min Rain = 0
KMD1 171234Z 35002KT 17/15 A3004 RMK A01 T01730150  RH  087%=      5-min Rain = 0
KMD1 171235Z 35002KT 17/15 A3004 RMK A01 T01730150  RH  087%=      5-min Rain = 0
KMD1 171236Z 33002KT 17/15 A3004 RMK A01 T01720150  RH  087%=      5-min Rain = 0
KMD1 171237Z 32001KT 17/15 A3004 RMK A01 T01720151  RH  087%=      5-min Rain = 0
KMD1 171238Z 31001KT 17/15 A3004 RMK A01 T01720150  RH  087%=      5-min Rain = 0
KMD1 171239Z 29001KT 17/15 A3004 RMK A01 T01720150  RH  087%=      5-min Rain = 0
KMD1 171240Z 29001KT 17/15 A3004 RMK A01 T01720150  RH  087%=      5-min Rain = 0
KMD1 171241Z 29001KT 17/15 A3004 RMK A01 T01720150  RH  087%=      5-min Rain = 0
KMD1 171242Z 27001KT 17/15 A3004 RMK A01 T01730150  RH  087%=      5-min Rain = 0
KMD1 171243Z 26001KT 17/15 A3004 RMK A01 T01730150  RH  086%=      5-min Rain = 0
KMD1 171244Z 25001KT 17/15 A3004 RMK A01 T01730150  RH  086%=      5-min Rain = 0
KMD1 171245Z 25001KT 17/15 A3004 RMK A01 T01730150  RH  086%=      5-min Rain = 0
KMD1 171246Z 25001KT 17/15 A3004 RMK A01 T01730150  RH  086%=      5-min Rain = 0
KMD1 171247Z 24001KT 17/15 A3004 RMK A01 T01740150  RH  086%=      5-min Rain = 0
KMD1 171248Z 23001KT 17/15 A3004 RMK A01 T01740150  RH  086%=      5-min Rain = 0
KMD1 171249Z 20000KT 18/15 A3004 RMK A01 T01750152  RH  086%=      5-min Rain = 0
KMD1 171250Z 20001KT 18/15 A3004 RMK A01 T01760152  RH  086%=      5-min Rain = 0
KMD1 171251Z 19000KT 18/15 A3004 RMK A01 T01780152  RH  085%=      5-min Rain = 0
KMD1 171252Z 18000KT 18/15 A3004 RMK A01 T01790152  RH  084%=      5-min Rain = 0
KMD1 171253Z 14000KT 18/15 A3004 RMK A01 T01790152  RH  084%=      5-min Rain = 0
KMD1 171254Z 13000KT 18/15 A3004 RMK A01 T01800152  RH  084%=      5-min Rain = 0
KMD1 171255Z 07000KT 18/15 A3004 RMK A01 T01810152  RH  083%=      5-min Rain = 0
KMD1 171256Z 00000KT 18/15 A3004 RMK A01 T01810152  RH  083%=      5-min Rain = 0
KMD1 171257Z 00000KT 18/15 A3004 RMK A01 T01820153  RH  083%=      5-min Rain = 0
KMD1 171258Z 00000KT 18/15 A3004 RMK A01 T01830154  RH  083%=      5-min Rain = 0
KMD1 171259Z 00000KT 18/16 A3004 RMK A01 T01840155  RH  083%=      5-min Rain = 0
KMD1 171300Z 00000KT 19/16 A3004 RMK A01 T01860155  RH  082%=      5-min Rain = 0
KMD1 171301Z 00000KT 19/15 A3004 RMK A01 T01860154  RH  082%=      5-min Rain = 0
KMD1 171302Z 00000KT 19/16 A3004 RMK A01 T01870155  RH  082%=      5-min Rain = 0
KMD1 171303Z 00000KT 19/15 A3004 RMK A01 T01880154  RH  081%=      5-min Rain = 0
KMD1 171304Z 00000KT 19/16 A3004 RMK A01 T01880155  RH  081%=      5-min Rain = 0
KMD1 171305Z 00000KT 19/16 A3004 RMK A01 T01880155  RH  081%=      5-min Rain = 0
KMD1 171306Z 00000KT 19/16 A3004 RMK A01 T01880155  RH  081%=      5-min Rain = 0
KMD1 171307Z 00000KT 19/16 A3004 RMK A01 T01880155  RH  081%=      5-min Rain = 0
KMD1 171308Z 20001KT 19/15 A3004 RMK A01 T01870154  RH  081%=      5-min Rain = 0
KMD1 171309Z 21001KT 19/15 A3004 RMK A01 T01870154  RH  081%=      5-min Rain = 0
KMD1 171310Z 22001KT 19/16 A3004 RMK A01 T01860155  RH  082%=      5-min Rain = 0
KMD1 171311Z 23001KT 19/16 A3004 RMK A01 T01860155  RH  082%=      5-min Rain = 0
KMD1 171312Z 23001KT 19/16 A3004 RMK A01 T01870157  RH  083%=      5-min Rain = 0
KMD1 171313Z 23000KT 19/16 A3004 RMK A01 T01870157  RH  083%=      5-min Rain = 0
KMD1 171314Z 23000KT 19/16 A3004 RMK A01 T01870157  RH  083%=      5-min Rain = 0
KMD1 171315Z 25001KT 19/16 A3004 RMK A01 T01870157  RH  083%=      5-min Rain = 0
KMD1 171316Z 23001KT 19/16 A3004 RMK A01 T01870158  RH  083%=      5-min Rain = 0
KMD1 171317Z 24001KT 19/16 A3004 RMK A01 T01870158  RH  083%=      5-min Rain = 0
KMD1 171318Z 24001KT 19/16 A3004 RMK A01 T01870158  RH  083%=      5-min Rain = 0
KMD1 171319Z 23000KT 19/16 A3004 RMK A01 T01870159  RH  083%=      5-min Rain = 0
KMD1 171320Z 24000KT 19/16 A3004 RMK A01 T01880160  RH  084%=      5-min Rain = 0
KMD1 171321Z 24000KT 19/16 A3004 RMK A01 T01880159  RH  083%=      5-min Rain = 0
KMD1 171322Z 23000KT 19/16 A3004 RMK A01 T01880159  RH  083%=      5-min Rain = 0
KMD1 171323Z 24000KT 19/16 A3004 RMK A01 T01890160  RH  083%=      5-min Rain = 0
KMD1 171324Z 00000KT 19/16 A3004 RMK A01 T01900161  RH  083%=      5-min Rain = 0
KMD1 171325Z 29000KT 19/16 A3004 RMK A01 T01910161  RH  083%=      5-min Rain = 0
KMD1 171326Z 00000KT 19/16 A3004 RMK A01 T01920162  RH  083%=      5-min Rain = 0
KMD1 171327Z 00000KT 19/16 A3004 RMK A01 T01930162  RH  082%=      5-min Rain = 0
KMD1 171328Z 00000KT 19/16 A3004 RMK A01 T01940162  RH  082%=      5-min Rain = 0
KMD1 171329Z 00000KT 20/16 A3004 RMK A01 T01950162  RH  081%=      5-min Rain = 0
KMD1 171330Z 00000KT 20/16 A3004 RMK A01 T01960162  RH  081%=      5-min Rain = 0
KMD1 171331Z 00000KT 20/16 A3004 RMK A01 T01970162  RH  080%=      5-min Rain = 0
KMD1 171332Z 00000KT 20/16 A3004 RMK A01 T01980161  RH  079%=      5-min Rain = 0
KMD1 171333Z 00000KT 20/16 A3004 RMK A01 T01980161  RH  079%=      5-min Rain = 0
KMD1 171334Z 00000KT 20/16 A3005 RMK A01 T01990161  RH  079%=      5-min Rain = 0
KMD1 171335Z 00000KT 20/16 A3005 RMK A01 T02000161  RH  078%=      5-min Rain = 0
KMD1 171336Z 00000KT 20/16 A3005 RMK A01 T02000162  RH  079%=      5-min Rain = 0
KMD1 171337Z 00000KT 20/16 A3005 RMK A01 T02020163  RH  078%=      5-min Rain = 0
KMD1 171338Z 00000KT 20/16 A3005 RMK A01 T02030162  RH  078%=      5-min Rain = 0
KMD1 171339Z 00000KT 20/16 A3005 RMK A01 T02030163  RH  078%=      5-min Rain = 0
KMD1 171340Z 00000KT 21/16 A3005 RMK A01 T02050163  RH  077%=      5-min Rain = 0
KMD1 171341Z 23000KT 21/16 A3005 RMK A01 T02060164  RH  077%=      5-min Rain = 0
KMD1 171342Z 24001KT 21/16 A3005 RMK A01 T02070163  RH  076%=      5-min Rain = 0
KMD1 171343Z 23001KT 21/16 A3005 RMK A01 T02080164  RH  076%=      5-min Rain = 0
KMD1 171344Z 23001KT 21/17 A3005 RMK A01 T02090165  RH  076%=      5-min Rain = 0
KMD1 171345Z 22001KT 21/16 A3005 RMK A01 T02090164  RH  076%=      5-min Rain = 0
KMD1 171346Z 23001KT 21/17 A3005 RMK A01 T02090165  RH  075%=      5-min Rain = 0
KMD1 171347Z 24001KT 21/17 A3005 RMK A01 T02100166  RH  076%=      5-min Rain = 0
KMD1 171348Z 24001KT 21/17 A3005 RMK A01 T02100166  RH  076%=      5-min Rain = 0
KMD1 171349Z 23002KT 21/17 A3005 RMK A01 T02100167  RH  076%=      5-min Rain = 0
KMD1 171350Z 25002KT 21/17 A3004 RMK A01 T02100167  RH  076%=      5-min Rain = 0
KMD1 171351Z 25002KT 21/17 A3004 RMK A01 T02110167  RH  076%=      5-min Rain = 0
KMD1 171352Z 24002KT 21/17 A3004 RMK A01 T02110167  RH  076%=      5-min Rain = 0
KMD1 171353Z 25002KT 21/17 A3005 RMK A01 T02120166  RH  075%=      5-min Rain = 0
KMD1 171354Z 25002KT 21/17 A3005 RMK A01 T02120165  RH  074%=      5-min Rain = 0
KMD1 171355Z 23002KT 21/17 A3005 RMK A01 T02130166  RH  075%=      5-min Rain = 0
KMD1 171356Z 24001KT 21/17 A3005 RMK A01 T02130167  RH  075%=      5-min Rain = 0
KMD1 171357Z 23001KT 21/17 A3005 RMK A01 T02140168  RH  075%=      5-min Rain = 0
KMD1 171358Z 22001KT 22/17 A3005 RMK A01 T02160168  RH  074%=      5-min Rain = 0
KMD1 171359Z 23001KT 22/17 A3005 RMK A01 T02170168  RH  074%=      5-min Rain = 0
KMD1 171400Z 23001KT 22/17 A3005 RMK A01 T02180169  RH  074%=      5-min Rain = 0
KMD1 171401Z 21000KT 22/17 A3005 RMK A01 T02200169  RH  073%=      5-min Rain = 0
KMD1 171402Z 23000KT 22/17 A3005 RMK A01 T02210170  RH  073%=      5-min Rain = 0
KMD1 171403Z 20000KT 22/17 A3005 RMK A01 T02230170  RH  072%=      5-min Rain = 0
KMD1 171404Z 20000KT 23/17 A3005 RMK A01 T02250171  RH  072%=      5-min Rain = 0
KMD1 171405Z 21000KT 23/17 A3005 RMK A01 T02270172  RH  071%=      5-min Rain = 0
KMD1 171406Z 23000KT 23/17 A3005 RMK A01 T02290174  RH  071%=      5-min Rain = 0
KMD1 171407Z 19001KT 23/17 A3005 RMK A01 T02300174  RH  070%=      5-min Rain = 0
KMD1 171408Z 19000KT 23/17 A3005 RMK A01 T02320173  RH  070%=      5-min Rain = 0
KMD1 171409Z 20000KT 23/18 A3004 RMK A01 T02330175  RH  070%=      5-min Rain = 0
KMD1 171410Z 00000KT 24/17 A3005 RMK A01 T02350174  RH  069%=      5-min Rain = 0
KMD1 171411Z 00000KT 24/18 A3005 RMK A01 T02360175  RH  068%=      5-min Rain = 0
KMD1 171412Z 21000KT 24/18 A3005 RMK A01 T02390176  RH  068%=      5-min Rain = 0
KMD1 171413Z 22001KT 24/17 A3005 RMK A01 T02400174  RH  067%=      5-min Rain = 0
KMD1 171414Z 25000KT 24/18 A3005 RMK A01 T02400175  RH  067%=      5-min Rain = 0
KMD1 171415Z 21000KT 24/18 A3005 RMK A01 T02400175  RH  067%=      5-min Rain = 0
KMD1 171416Z 21001KT 24/18 A3005 RMK A01 T02400178  RH  068%=      5-min Rain = 0
KMD1 171417Z 19001KT 24/18 A3005 RMK A01 T02410177  RH  067%=      5-min Rain = 0
KMD1 171418Z 21002KT 24/18 A3005 RMK A01 T02420178  RH  067%=      5-min Rain = 0
KMD1 171419Z 21001KT 24/18 A3005 RMK A01 T02420178  RH  067%=      5-min Rain = 0
KMD1 171420Z 23001KT 24/18 A3005 RMK A01 T02430178  RH  067%=      5-min Rain = 0
KMD1 171421Z 23000KT 24/18 A3005 RMK A01 T02430178  RH  067%=      5-min Rain = 0
KMD1 171422Z 24001KT 24/18 A3005 RMK A01 T02430179  RH  067%=      5-min Rain = 0
KMD1 171423Z 26001KT 24/18 A3005 RMK A01 T02430178  RH  067%=      5-min Rain = 0
KMD1 171424Z 24001KT 24/18 A3005 RMK A01 T02430179  RH  068%=      5-min Rain = 0
KMD1 171425Z 21000KT 24/18 A3005 RMK A01 T02430179  RH  067%=      5-min Rain = 0
KMD1 171426Z 24000KT 25/18 A3005 RMK A01 T02450178  RH  067%=      5-min Rain = 0
KMD1 171427Z 21000KT 25/18 A3005 RMK A01 T02470180  RH  066%=      5-min Rain = 0
KMD1 171428Z 22001KT 25/18 A3005 RMK A01 T02490179  RH  065%=      5-min Rain = 0
KMD1 171429Z 23001KT 25/18 A3005 RMK A01 T02510180  RH  065%=      5-min Rain = 0
KMD1 171430Z 24000KT 25/18 A3005 RMK A01 T02520181  RH  065%=      5-min Rain = 0
KMD1 171431Z 29000KT 25/18 A3005 RMK A01 T02530182  RH  065%=      5-min Rain = 0
KMD1 171432Z 30001KT 25/18 A3005 RMK A01 T02540180  RH  064%=      5-min Rain = 0
KMD1 171433Z 23000KT 25/18 A3005 RMK A01 T02540182  RH  064%=      5-min Rain = 0
KMD1 171434Z 24002KT 26/18 A3005 RMK A01 T02550181  RH  064%=      5-min Rain = 0
KMD1 171435Z 24001KT 25/18 A3005 RMK A01 T02540181  RH  064%=      5-min Rain = 0
KMD1 171436Z 21001KT 25/18 A3005 RMK A01 T02540182  RH  064%=      5-min Rain = 0
KMD1 171437Z 19001KT 25/18 A3005 RMK A01 T02540183  RH  065%=      5-min Rain = 0
KMD1 171438Z 18001KT 25/18 A3005 RMK A01 T02540183  RH  065%=      5-min Rain = 0
KMD1 171439Z 20000KT 26/18 A3005 RMK A01 T02550183  RH  064%=      5-min Rain = 0
KMD1 171440Z 13000KT 26/18 A3005 RMK A01 T02570182  RH  063%=      5-min Rain = 0
KMD1 171441Z 23000KT 26/18 A3005 RMK A01 T02590183  RH  063%=      5-min Rain = 0
KMD1 171442Z 23001KT 26/18 A3005 RMK A01 T02600183  RH  062%=      5-min Rain = 0
KMD1 171443Z 23001KT 26/18 A3005 RMK A01 T02600184  RH  063%=      5-min Rain = 0
KMD1 171444Z 23001KT 26/19 A3005 RMK A01 T02590185  RH  064%=      5-min Rain = 0
KMD1 171445Z 24001KT 26/18 A3005 RMK A01 T02590184  RH  063%=      5-min Rain = 0
KMD1 171446Z 23001KT 26/19 A3005 RMK A01 T02590185  RH  064%=      5-min Rain = 0
KMD1 171447Z 21001KT 26/19 A3005 RMK A01 T02600185  RH  063%=      5-min Rain = 0
KMD1 171448Z 22002KT 26/19 A3005 RMK A01 T02610186  RH  063%=      5-min Rain = 0
KMD1 171449Z 22001KT 26/19 A3005 RMK A01 T02600186  RH  064%=      5-min Rain = 0
KMD1 171450Z 23002KT 26/19 A3005 RMK A01 T02600185  RH  063%=      5-min Rain = 0
KMD1 171451Z 22001KT 26/19 A3005 RMK A01 T02610185  RH  063%=      5-min Rain = 0
KMD1 171452Z 23001KT 26/19 A3005 RMK A01 T02610186  RH  063%=      5-min Rain = 0
KMD1 171453Z 20001KT 26/19 A3005 RMK A01 T02610188  RH  064%=      5-min Rain = 0
KMD1 171454Z 00000KT 26/19 A3005 RMK A01 T02630187  RH  063%=      5-min Rain = 0
KMD1 171455Z 00000KT 26/19 A3005 RMK A01 T02640186  RH  062%=      5-min Rain = 0
KMD1 171456Z 00000KT 27/19 A3005 RMK A01 T02660187  RH  062%=      5-min Rain = 0
KMD1 171457Z 27001KT 27/19 A3005 RMK A01 T02690188  RH  061%=      5-min Rain = 0
KMD1 171458Z 26002KT 27/19 A3005 RMK A01 T02700187  RH  060%=      5-min Rain = 0
KMD1 171459Z 25001KT 27/19 A3005 RMK A01 T02700187  RH  060%=      5-min Rain = 0
KMD1 171500Z 23001KT 27/19 A3005 RMK A01 T02690187  RH  061%=      5-min Rain = 0
KMD1 171501Z 27001KT 27/19 A3005 RMK A01 T02690187  RH  061%=      5-min Rain = 0
KMD1 171502Z 27000KT 27/19 A3005 RMK A01 T02680187  RH  061%=      5-min Rain = 0
KMD1 171503Z 27001KT 27/19 A3005 RMK A01 T02690186  RH  060%=      5-min Rain = 0
KMD1 171504Z 28000KT 27/19 A3005 RMK A01 T02700187  RH  060%=      5-min Rain = 0
KMD1 171505Z 20000KT 27/19 A3005 RMK A01 T02720189  RH  060%=      5-min Rain = 0
KMD1 171506Z 19001KT 27/19 A3005 RMK A01 T02740187  RH  059%=      5-min Rain = 0
KMD1 171507Z 14001KT 28/19 A3005 RMK A01 T02760190  RH  059%=      5-min Rain = 0
KMD1 171508Z 12000KT 28/19 A3005 RMK A01 T02780187  RH  058%=      5-min Rain = 0
KMD1 171509Z 22000KT 28/19 A3005 RMK A01 T02790186  RH  057%=      5-min Rain = 0
KMD1 171510Z 26000KT 28/19 A3005 RMK A01 T02790187  RH  057%=      5-min Rain = 0
KMD1 171511Z 00000KT 28/19 A3005 RMK A01 T02790188  RH  058%=      5-min Rain = 0
KMD1 171512Z 29000KT 28/19 A3005 RMK A01 T02780188  RH  058%=      5-min Rain = 0
KMD1 171513Z 33001KT 28/19 A3005 RMK A01 T02780188  RH  058%=      5-min Rain = 0
KMD1 171514Z 09001KT 28/19 A3005 RMK A01 T02790191  RH  059%=      5-min Rain = 0
KMD1 171515Z 09003KT 28/19 A3005 RMK A01 T02820188  RH  057%=      5-min Rain = 0
KMD1 171516Z 11003KT 28/18 A3005 RMK A01 T02830180  RH  053%=      5-min Rain = 0
KMD1 171517Z 11003KT 28/18 A3005 RMK A01 T02840181  RH  053%=      5-min Rain = 0
KMD1 171518Z 07005KT 29/18 A3005 RMK A01 T02860182  RH  053%=      5-min Rain = 0
KMD1 171519Z 07002KT 29/18 A3005 RMK A01 T02850183  RH  054%=      5-min Rain = 0
KMD1 171520Z 07001KT 28/18 A3005 RMK A01 T02840178  RH  053%=      5-min Rain = 0
KMD1 171521Z 11001KT 28/18 A3005 RMK A01 T02840177  RH  052%=      5-min Rain = 0
KMD1 171522Z 12001KT 29/18 A3005 RMK A01 T02850179  RH  053%=      5-min Rain = 0
KMD1 171523Z 15002KT 29/18 A3005 RMK A01 T02870180  RH  052%=      5-min Rain = 0
KMD1 171524Z 14004KT 29/18 A3005 RMK A01 T02890180  RH  052%=      5-min Rain = 0
KMD1 171525Z 11004KT 29/18 A3005 RMK A01 T02910179  RH  051%=      5-min Rain = 0
KMD1 171526Z 12003KT 29/18 A3005 RMK A01 T02910178  RH  050%=      5-min Rain = 0
KMD1 171527Z 13004KT 29/18 A3005 RMK A01 T02900177  RH  051%=      5-min Rain = 0
KMD1 171528Z 12002KT 29/18 A3005 RMK A01 T02890178  RH  051%=      5-min Rain = 0
KMD1 171529Z 13000KT 29/18 A3005 RMK A01 T02890181  RH  052%=      5-min Rain = 0
KMD1 171530Z 08002KT 29/18 A3005 RMK A01 T02930181  RH  051%=      5-min Rain = 0
KMD1 171531Z 11003KT 29/18 A3005 RMK A01 T02940179  RH  050%=      5-min Rain = 0
KMD1 171532Z 06002KT 29/18 A3005 RMK A01 T02930179  RH  050%=      5-min Rain = 0
KMD1 171533Z 05002KT 29/18 A3005 RMK A01 T02930182  RH  051%=      5-min Rain = 0
KMD1 171534Z 11003KT 30/18 A3005 RMK A01 T02950182  RH  051%=      5-min Rain = 0
KMD1 171535Z 10005KT 30/18 A3005 RMK A01 T02970179  RH  049%=      5-min Rain = 0
KMD1 171536Z 09003KT 29/18 A3005 RMK A01 T02930179  RH  050%=      5-min Rain = 0
KMD1 171537Z 11002KT 29/18 A3005 RMK A01 T02920177  RH  050%=      5-min Rain = 0
KMD1 171538Z 08002KT 29/18 A3005 RMK A01 T02910179  RH  051%=      5-min Rain = 0
KMD1 171539Z 12004KT 29/18 A3005 RMK A01 T02930179  RH  050%=      5-min Rain = 0
KMD1 171540Z 12003KT 29/18 A3005 RMK A01 T02930178  RH  050%=      5-min Rain = 0
KMD1 171541Z 13002KT 29/18 A3005 RMK A01 T02930179  RH  050%=      5-min Rain = 0
KMD1 171542Z 09004KT 29/18 A3005 RMK A01 T02930179  RH  050%=      5-min Rain = 0
KMD1 171543Z 09008KT 30/18 A3005 RMK A01 T02950175  RH  048%=      5-min Rain = 0
KMD1 171544Z 08006KT 30/17 A3005 RMK A01 T02950174  RH  048%=      5-min Rain = 0
KMD1 171545Z 08005KT 29/17 A3005 RMK A01 T02940174  RH  048%=      5-min Rain = 0
KMD1 171546Z 09008KT 29/17 A3005 RMK A01 T02930174  RH  049%=      5-min Rain = 0
KMD1 171547Z 09005KT 29/17 A3005 RMK A01 T02940170  RH  047%=      5-min Rain = 0
KMD1 171548Z 08005KT 29/18 A3005 RMK A01 T02940175  RH  049%=      5-min Rain = 0
KMD1 171549Z 07006KT 30/18 A3005 RMK A01 T02970176  RH  048%=      5-min Rain = 0
KMD1 171550Z 07006KT 30/17 A3005 RMK A01 T02990173  RH  047%=      5-min Rain = 0
KMD1 171551Z 06005KT 30/17 A3005 RMK A01 T02980174  RH  047%=      5-min Rain = 0
KMD1 171552Z 06004KT 30/17 A3005 RMK A01 T02980174  RH  047%=      5-min Rain = 0
KMD1 171553Z 10003KT 30/18 A3005 RMK A01 T02980175  RH  048%=      5-min Rain = 0
KMD1 171554Z 11007KT 30/18 A3005 RMK A01 T02990178  RH  048%=      5-min Rain = 0
KMD1 171555Z 12007KT 30/18 A3005 RMK A01 T03010178  RH  048%=      5-min Rain = 0
KMD1 171556Z 13006KT 30/18 A3005 RMK A01 T03010178  RH  048%=      5-min Rain = 0
KMD1 171557Z 16004KT 30/18 A3005 RMK A01 T03010178  RH  048%=      5-min Rain = 0
KMD1 171558Z 15006KT 30/18 A3005 RMK A01 T03000179  RH  048%=      5-min Rain = 0
KMD1 171559Z 15007KT 30/18 A3005 RMK A01 T03000180  RH  049%=      5-min Rain = 0
KMD1 171600Z 14004KT 30/18 A3005 RMK A01 T03000179  RH  048%=      5-min Rain = 0
KMD1 171601Z 14004KT 30/18 A3005 RMK A01 T03000175  RH  047%=      5-min Rain = 0
KMD1 171602Z 12005KT 30/18 A3005 RMK A01 T03010180  RH  048%=      5-min Rain = 0
KMD1 171603Z 12007KT 30/18 A3005 RMK A01 T03030176  RH  047%=      5-min Rain = 0
KMD1 171604Z 12007KT 30/18 A3005 RMK A01 T03030176  RH  047%=      5-min Rain = 0
KMD1 171605Z 10005KT 30/18 A3005 RMK A01 T03010177  RH  047%=      5-min Rain = 0
KMD1 171606Z 11003KT 30/18 A3005 RMK A01 T02990175  RH  047%=      5-min Rain = 0
KMD1 171607Z 09003KT 30/18 A3005 RMK A01 T02990175  RH  047%=      5-min Rain = 0
KMD1 171608Z 11006KT 30/18 A3005 RMK A01 T02990177  RH  048%=      5-min Rain = 0
KMD1 171609Z 12005KT 30/18 A3005 RMK A01 T03020176  RH  047%=      5-min Rain = 0
KMD1 171610Z 13004KT 30/18 A3005 RMK A01 T03010175  RH  047%=      5-min Rain = 0
KMD1 171611Z 11004KT 30/18 A3005 RMK A01 T02990177  RH  048%=      5-min Rain = 0
KMD1 171612Z 13002KT 30/17 A3005 RMK A01 T02990174  RH  047%=      5-min Rain = 0
KMD1 171613Z 09000KT 30/18 A3005 RMK A01 T02990175  RH  047%=      5-min Rain = 0
KMD1 171614Z 10002KT 30/18 A3005 RMK A01 T02990175  RH  047%=      5-min Rain = 0
KMD1 171615Z 12005KT 30/18 A3005 RMK A01 T03020179  RH  048%=      5-min Rain = 0
KMD1 171616Z 11004KT 31/18 A3005 RMK A01 T03050178  RH  047%=      5-min Rain = 0
KMD1 171617Z 16003KT 31/18 A3005 RMK A01 T03060181  RH  047%=      5-min Rain = 0
KMD1 171618Z 19002KT 31/18 A3005 RMK A01 T03060179  RH  046%=      5-min Rain = 0
KMD1 171619Z 20003KT 31/18 A3005 RMK A01 T03060178  RH  046%=      5-min Rain = 0
KMD1 171620Z 17005G10KT 31/18 A3005 RMK A01 T03050178  RH  047%=      5-min Rain = 0
KMD1 171621Z 13006KT 30/18 A3005 RMK A01 T03040181  RH  048%=      5-min Rain = 0
KMD1 171622Z 15006KT 31/18 A3005 RMK A01 T03060179  RH  047%=      5-min Rain = 0
KMD1 171623Z 12007KT 31/18 A3005 RMK A01 T03060180  RH  047%=      5-min Rain = 0
KMD1 171624Z 12006KT 31/18 A3005 RMK A01 T03070177  RH  046%=      5-min Rain = 0
KMD1 171625Z 15006KT 31/18 A3005 RMK A01 T03050177  RH  046%=      5-min Rain = 0
KMD1 171626Z 15006KT 30/18 A3005 RMK A01 T03040179  RH  047%=      5-min Rain = 0
KMD1 171627Z 13007KT 31/18 A3005 RMK A01 T03050176  RH  046%=      5-min Rain = 0
KMD1 171628Z 15005KT 31/18 A3005 RMK A01 T03060175  RH  045%=      5-min Rain = 0
KMD1 171629Z 17005KT 31/17 A3005 RMK A01 T03070174  RH  045%=      5-min Rain = 0
KMD1 171630Z 18005KT 31/18 A3005 RMK A01 T03060175  RH  045%=      5-min Rain = 0
KMD1 171631Z 25004KT 31/17 A3004 RMK A01 T03050173  RH  045%=      5-min Rain = 0
KMD1 171632Z 26003KT 30/17 A3004 RMK A01 T03040174  RH  046%=      5-min Rain = 0
KMD1 171633Z 25002KT 30/17 A3004 RMK A01 T03040173  RH  045%=      5-min Rain = 0
KMD1 171634Z 26000KT 30/18 A3004 RMK A01 T03040176  RH  046%=      5-min Rain = 0
KMD1 171635Z 13002KT 31/18 A3004 RMK A01 T03070175  RH  045%=      5-min Rain = 0
KMD1 171636Z 12003G8KT 31/17 A3005 RMK A01 T03100173  RH  044%=      5-min Rain = 0
KMD1 171637Z 11008KT 31/17 A3005 RMK A01 T03110172  RH  043%=      5-min Rain = 0
KMD1 171638Z 12007KT 31/17 A3005 RMK A01 T03120171  RH  043%=      5-min Rain = 0
KMD1 171639Z 12007KT 31/17 A3004 RMK A01 T03120172  RH  043%=      5-min Rain = 0
KMD1 171640Z 13008KT 31/17 A3004 RMK A01 T03120170  RH  043%=      5-min Rain = 0
KMD1 171641Z 12006KT 31/17 A3004 RMK A01 T03120170  RH  042%=      5-min Rain = 0
KMD1 171642Z 13005KT 31/17 A3004 RMK A01 T03120170  RH  043%=      5-min Rain = 0
KMD1 171643Z 13005KT 31/17 A3004 RMK A01 T03120169  RH  042%=      5-min Rain = 0
KMD1 171644Z 13004KT 31/17 A3004 RMK A01 T03120169  RH  042%=      5-min Rain = 0
KMD1 171645Z 06003KT 31/17 A3004 RMK A01 T03120169  RH  042%=      5-min Rain = 0
KMD1 171646Z 03004KT 31/17 A3004 RMK A01 T03130169  RH  042%=      5-min Rain = 0
KMD1 171647Z 08004KT 32/17 A3004 RMK A01 T03150174  RH  043%=      5-min Rain = 0
KMD1 171648Z 12009KT 32/17 A3004 RMK A01 T03200172  RH  041%=      5-min Rain = 0
KMD1 171649Z 11006KT 32/17 A3004 RMK A01 T03200169  RH  040%=      5-min Rain = 0
KMD1 171650Z 10007KT 32/17 A3004 RMK A01 T03170170  RH  041%=      5-min Rain = 0
KMD1 171651Z 10007KT 32/17 A3004 RMK A01 T03170170  RH  041%=      5-min Rain = 0
KMD1 171652Z 10005KT 32/17 A3004 RMK A01 T03180167  RH  040%=      5-min Rain = 0
KMD1 171653Z 09003KT 32/17 A3004 RMK A01 T03150166  RH  041%=      5-min Rain = 0
KMD1 171654Z 05002KT 31/16 A3004 RMK A01 T03110164  RH  041%=      5-min Rain = 0
KMD1 171655Z 03003KT 31/17 A3004 RMK A01 T03100165  RH  042%=      5-min Rain = 0
KMD1 171656Z 04003KT 31/16 A3004 RMK A01 T03100164  RH  041%=      5-min Rain = 0
KMD1 171657Z 09004KT 31/17 A3004 RMK A01 T03100168  RH  042%=      5-min Rain = 0
KMD1 171658Z 12006KT 31/17 A3004 RMK A01 T03120168  RH  042%=      5-min Rain = 0
KMD1 171659Z 15006KT 31/17 A3004 RMK A01 T03140166  RH  041%=      5-min Rain = 0
KMD1 171700Z 13005KT 31/17 A3004 RMK A01 T03140168  RH  042%=      5-min Rain = 0
KMD1 171701Z 12004KT 31/17 A3004 RMK A01 T03130167  RH  042%=      5-min Rain = 0
KMD1 171702Z 13004KT 32/17 A3004 RMK A01 T03150168  RH  041%=      5-min Rain = 0
KMD1 171703Z 15001KT 32/17 A3004 RMK A01 T03160165  RH  040%=      5-min Rain = 0
KMD1 171704Z 23001KT 32/17 A3004 RMK A01 T03160166  RH  040%=      5-min Rain = 0
KMD1 171705Z 25002KT 32/17 A3004 RMK A01 T03160167  RH  041%=      5-min Rain = 0
KMD1 171706Z 26002KT 32/17 A3004 RMK A01 T03160167  RH  041%=      5-min Rain = 0
KMD1 171707Z 14003KT 32/17 A3004 RMK A01 T03150168  RH  041%=      5-min Rain = 0
KMD1 171708Z 13006KT 32/17 A3004 RMK A01 T03170169  RH  041%=      5-min Rain = 0
KMD1 171709Z 08005KT 32/17 A3004 RMK A01 T03210170  RH  040%=      5-min Rain = 0
KMD1 171710Z 09007KT 33/17 A3004 RMK A01 T03250171  RH  040%=      5-min Rain = 0
KMD1 171711Z 09009KT 33/17 A3004 RMK A01 T03260166  RH  038%=      5-min Rain = 0
KMD1 171712Z 10008KT 32/17 A3004 RMK A01 T03190165  RH  040%=      5-min Rain = 0
KMD1 171713Z 08006KT 31/16 A3004 RMK A01 T03140164  RH  041%=      5-min Rain = 0
KMD1 171714Z 06006KT 31/17 A3003 RMK A01 T03120167  RH  042%=      5-min Rain = 0
KMD1 171715Z 06007KT 31/17 A3003 RMK A01 T03130165  RH  041%=      5-min Rain = 0
KMD1 171716Z 06006KT 32/17 A3003 RMK A01 T03150169  RH  041%=      5-min Rain = 0
KMD1 171717Z 07006KT 32/17 A3003 RMK A01 T03190167  RH  040%=      5-min Rain = 0
KMD1 171718Z 05005KT 32/17 A3003 RMK A01 T03200168  RH  040%=      5-min Rain = 0
KMD1 171719Z 05006KT 32/17 A3003 RMK A01 T03190168  RH  040%=      5-min Rain = 0
KMD1 171720Z 03004KT 32/17 A3003 RMK A01 T03170166  RH  040%=      5-min Rain = 0
KMD1 171721Z 02002KT 32/17 A3003 RMK A01 T03150165  RH  041%=      5-min Rain = 0
KMD1 171722Z 06001KT 31/17 A3003 RMK A01 T03140165  RH  041%=      5-min Rain = 0
KMD1 171723Z 09004KT 31/16 A3003 RMK A01 T03130164  RH  041%=      5-min Rain = 0
KMD1 171724Z 08004KT 31/17 A3003 RMK A01 T03120165  RH  041%=      5-min Rain = 0
KMD1 171725Z 08003KT 31/16 A3003 RMK A01 T03110163  RH  041%=      5-min Rain = 0
KMD1 171726Z 09006KT 31/17 A3003 RMK A01 T03100168  RH  042%=      5-min Rain = 0
KMD1 171727Z 07010KT 31/17 A3003 RMK A01 T03140167  RH  041%=      5-min Rain = 0
KMD1 171728Z 06010KT 32/17 A3003 RMK A01 T03160166  RH  041%=      5-min Rain = 0
KMD1 171729Z 07008KT 32/17 A3003 RMK A01 T03170169  RH  041%=      5-min Rain = 0
KMD1 171730Z 06007KT 32/17 A3003 RMK A01 T03190166  RH  040%=      5-min Rain = 0
KMD1 171731Z 06005KT 32/17 A3003 RMK A01 T03180168  RH  041%=      5-min Rain = 0
KMD1 171732Z 14004KT 32/17 A3003 RMK A01 T03190168  RH  040%=      5-min Rain = 0
KMD1 171733Z 13006KT 32/17 A3002 RMK A01 T03210165  RH  039%=      5-min Rain = 0
KMD1 171734Z 07003KT 32/17 A3003 RMK A01 T03160165  RH  040%=      5-min Rain = 0
KMD1 171735Z 01001KT 32/17 A3002 RMK A01 T03150165  RH  041%=      5-min Rain = 0
KMD1 171736Z 02001KT 32/17 A3002 RMK A01 T03150165  RH  040%=      5-min Rain = 0
KMD1 171737Z 02002KT 32/17 A3002 RMK A01 T03160165  RH  040%=      5-min Rain = 0
KMD1 171738Z 07005KT 32/17 A3002 RMK A01 T03190168  RH  040%=      5-min Rain = 0
KMD1 171739Z 06007KT 32/16 A3002 RMK A01 T03210164  RH  039%=      5-min Rain = 0
KMD1 171740Z 08009KT 32/17 A3002 RMK A01 T03230168  RH  040%=      5-min Rain = 0
KMD1 171741Z 06009KT 33/17 A3002 RMK A01 T03260166  RH  038%=      5-min Rain = 0
KMD1 171742Z 06008KT 33/16 A3002 RMK A01 T03250164  RH  038%=      5-min Rain = 0
KMD1 171743Z 06006KT 32/17 A3002 RMK A01 T03240165  RH  038%=      5-min Rain = 0
KMD1 171744Z 09006KT 33/17 A3002 RMK A01 T03250165  RH  038%=      5-min Rain = 0
KMD1 171745Z 07005KT 33/16 A3002 RMK A01 T03250161  RH  037%=      5-min Rain = 0
KMD1 171746Z 07004KT 32/16 A3002 RMK A01 T03210164  RH  039%=      5-min Rain = 0
KMD1 171747Z 05006KT 32/16 A3002 RMK A01 T03220162  RH  038%=      5-min Rain = 0
KMD1 171748Z 07004KT 32/16 A3002 RMK A01 T03240164  RH  038%=      5-min Rain = 0
KMD1 171749Z 00002KT 33/16 A3002 RMK A01 T03260160  RH  037%=      5-min Rain = 0
KMD1 171750Z 02004KT 33/16 A3002 RMK A01 T03280160  RH  037%=      5-min Rain = 0
KMD1 171751Z 06007KT 33/16 A3002 RMK A01 T03260162  RH  037%=      5-min Rain = 0
KMD1 171752Z 04008KT 32/16 A3002 RMK A01 T03230160  RH  038%=      5-min Rain = 0
KMD1 171753Z 03007KT 32/16 A3002 RMK A01 T03220163  RH  038%=      5-min Rain = 0
KMD1 171754Z 04005KT 32/16 A3002 RMK A01 T03230163  RH  038%=      5-min Rain = 0
KMD1 171755Z 03009KT 32/16 A3002 RMK A01 T03230160  RH  038%=      5-min Rain = 0
KMD1 171756Z 01006KT 32/16 A3002 RMK A01 T03180157  RH  038%=      5-min Rain = 0
KMD1 171757Z 01005KT 32/16 A3002 RMK A01 T03180160  RH  039%=      5-min Rain = 0
KMD1 171758Z 35003KT 32/16 A3002 RMK A01 T03200161  RH  038%=      5-min Rain = 0
KMD1 171759Z 11003G8KT 32/17 A3002 RMK A01 T03240166  RH  039%=      5-min Rain = 0
KMD1 171800Z 10006KT 33/17 A3002 RMK A01 T03270166  RH  038%=      5-min Rain = 0
KMD1 171801Z 06008KT 33/17 A3002 RMK A01 T03290168  RH  038%=      5-min Rain = 0
KMD1 171802Z 04008KT 33/16 A3002 RMK A01 T03320164  RH  037%=      5-min Rain = 0
KMD1 171803Z 06010KT 33/16 A3002 RMK A01 T03320164  RH  037%=      5-min Rain = 0
KMD1 171804Z 05008KT 33/16 A3002 RMK A01 T03290158  RH  036%=      5-min Rain = 0
KMD1 171805Z 07006KT 33/16 A3002 RMK A01 T03260156  RH  036%=      5-min Rain = 0
KMD1 171806Z 09006KT 33/16 A3002 RMK A01 T03290158  RH  036%=      5-min Rain = 0
KMD1 171807Z 09003KT 33/15 A3002 RMK A01 T03310152  RH  034%=      5-min Rain = 0
KMD1 171808Z 11001KT 33/15 A3001 RMK A01 T03270152  RH  035%=      5-min Rain = 0
KMD1 171809Z 11006KT 32/16 A3001 RMK A01 T03240156  RH  036%=      5-min Rain = 0
KMD1 171810Z 09006KT 32/16 A3001 RMK A01 T03230155  RH  036%=      5-min Rain = 0
KMD1 171811Z 05007KT 32/16 A3002 RMK A01 T03200158  RH  038%=      5-min Rain = 0
KMD1 171812Z 04006KT 32/16 A3001 RMK A01 T03170159  RH  039%=      5-min Rain = 0
KMD1 171813Z 06007KT 31/16 A3001 RMK A01 T03140159  RH  039%=      5-min Rain = 0
KMD1 171814Z 06010KT 31/16 A3001 RMK A01 T03130162  RH  040%=      5-min Rain = 0
KMD1 171815Z 06010KT 31/16 A3001 RMK A01 T03140162  RH  040%=      5-min Rain = 0
KMD1 171816Z 06008KT 31/16 A3001 RMK A01 T03130162  RH  040%=      5-min Rain = 0
KMD1 171817Z 05005KT 31/16 A3001 RMK A01 T03130162  RH  040%=      5-min Rain = 0
KMD1 171818Z 05005KT 31/16 A3001 RMK A01 T03120161  RH  040%=      5-min Rain = 0
KMD1 171819Z 03003KT 31/16 A3001 RMK A01 T03120161  RH  040%=      5-min Rain = 0
KMD1 171820Z 04004KT 31/16 A3001 RMK A01 T03120160  RH  040%=      5-min Rain = 0
KMD1 171821Z 05004KT 31/16 A3001 RMK A01 T03120161  RH  040%=      5-min Rain = 0
KMD1 171822Z 06003KT 31/16 A3001 RMK A01 T03110163  RH  041%=      5-min Rain = 0
KMD1 171823Z 03003KT 31/17 A3001 RMK A01 T03130165  RH  041%=      5-min Rain = 0
KMD1 171824Z 01004KT 32/17 A3001 RMK A01 T03180166  RH  040%=      5-min Rain = 0
KMD1 171825Z 02003KT 32/16 A3001 RMK A01 T03200162  RH  039%=      5-min Rain = 0
KMD1 171826Z 05003KT 32/16 A3001 RMK A01 T03180161  RH  039%=      5-min Rain = 0
KMD1 171827Z 06004KT 32/16 A3001 RMK A01 T03170163  RH  040%=      5-min Rain = 0
KMD1 171828Z 05009KT 32/16 A3001 RMK A01 T03170161  RH  039%=      5-min Rain = 0
KMD1 171829Z 06010KT 32/16 A3001 RMK A01 T03170160  RH  039%=      5-min Rain = 0
KMD1 171830Z 06010KT 32/16 A3001 RMK A01 T03170159  RH  038%=      5-min Rain = 0
KMD1 171831Z 05008KT 32/16 A30 RMK A01 T03160159  RH  039%=      5-min Rain = 0
KMD1 171832Z 05007KT 32/16 A30 RMK A01 T03170159  RH  039%=      5-min Rain = 0
KMD1 171833Z 06008KT 32/16 A30 RMK A01 T03200158  RH  038%=      5-min Rain = 0
KMD1 171834Z 07008KT 32/15 A30 RMK A01 T03220153  RH  036%=      5-min Rain = 0
KMD1 171835Z 07008KT 32/16 A30 RMK A01 T03240155  RH  036%=      5-min Rain = 0
KMD1 171836Z 07006KT 33/16 A30 RMK A01 T03260157  RH  036%=      5-min Rain = 0
KMD1 171837Z 07006KT 33/16 A30 RMK A01 T03250157  RH  036%=      5-min Rain = 0
KMD1 171838Z 06008KT 33/16 A30 RMK A01 T03250155  RH  036%=      5-min Rain = 0
KMD1 171839Z 05005KT 33/16 A30 RMK A01 T03250156  RH  036%=      5-min Rain = 0
KMD1 171840Z 02002KT 33/15 A30 RMK A01 T03270154  RH  035%=      5-min Rain = 0
KMD1 171841Z 03004KT 33/15 A30 RMK A01 T03270154  RH  035%=      5-min Rain = 0
KMD1 171842Z 04006KT 33/16 A30 RMK A01 T03260156  RH  036%=      5-min Rain = 0
KMD1 171843Z 02004KT 33/15 A30 RMK A01 T03260153  RH  035%=      5-min Rain = 0
KMD1 171844Z 02006KT 33/16 A30 RMK A01 T03260157  RH  036%=      5-min Rain = 0
KMD1 171845Z 03004G10KT 33/15 A30 RMK A01 T03270152  RH  035%=      5-min Rain = 0
KMD1 171846Z 05012KT 33/16 A30 RMK A01 T03260157  RH  036%=      5-min Rain = 0
KMD1 171847Z 07011KT 33/16 A30 RMK A01 T03250159  RH  037%=      5-min Rain = 0
KMD1 171848Z 07009KT 33/16 A30 RMK A01 T03260159  RH  037%=      5-min Rain = 0
KMD1 171849Z 05005G11KT 33/16 A30 RMK A01 T03250160  RH  037%=      5-min Rain = 0
KMD1 171850Z 04009KT 32/16 A30 RMK A01 T03240158  RH  037%=      5-min Rain = 0
KMD1 171851Z 04009KT 32/16 A30 RMK A01 T03230158  RH  037%=      5-min Rain = 0
KMD1 171852Z 04006KT 32/16 A30 RMK A01 T03230158  RH  037%=      5-min Rain = 0
KMD1 171853Z 04004KT 32/16 A30 RMK A01 T03230163  RH  038%=      5-min Rain = 0
KMD1 171854Z 02006KT 33/16 A30 RMK A01 T03280160  RH  036%=      5-min Rain = 0
KMD1 171855Z 01006KT 33/16 A30 RMK A01 T03280159  RH  036%=      5-min Rain = 0
KMD1 171856Z 00004KT 33/16 A2999 RMK A01 T03290159  RH  036%=      5-min Rain = 0
KMD1 171857Z 36002KT 33/16 A2999 RMK A01 T03290157  RH  036%=      5-min Rain = 0
KMD1 171858Z 08005KT 33/16 A2999 RMK A01 T03290159  RH  036%=      5-min Rain = 0
KMD1 171859Z 07007KT 33/16 A2999 RMK A01 T03320159  RH  035%=      5-min Rain = 0
KMD1 171900Z 06006KT 33/16 A2999 RMK A01 T03330157  RH  035%=      5-min Rain = 0
KMD1 171901Z 05004KT 33/16 A2999 RMK A01 T03320157  RH  035%=      5-min Rain = 0
KMD1 171902Z 05003KT 33/16 A2999 RMK A01 T03300157  RH  035%=      5-min Rain = 0
KMD1 171903Z 04002KT 33/16 A2999 RMK A01 T03300158  RH  035%=      5-min Rain = 0
KMD1 171904Z 09001KT 33/15 A2999 RMK A01 T03300154  RH  035%=      5-min Rain = 0
KMD1 171905Z 09006KT 33/16 A2999 RMK A01 T03300160  RH  036%=      5-min Rain = 0
KMD1 171906Z 10007KT 34/16 A2999 RMK A01 T03360161  RH  035%=      5-min Rain = 0
KMD1 171907Z 10005KT 34/16 A2999 RMK A01 T03390161  RH  035%=      5-min Rain = 0
KMD1 171908Z 13003KT 34/16 A2999 RMK A01 T03370159  RH  035%=      5-min Rain = 0
KMD1 171909Z 12001KT 34/16 A2999 RMK A01 T03350159  RH  035%=      5-min Rain = 0
KMD1 171910Z 04003G8KT 34/16 A2999 RMK A01 T03350160  RH  035%=      5-min Rain = 0
KMD1 171911Z 03006KT 33/16 A2999 RMK A01 T03340160  RH  035%=      5-min Rain = 0
KMD1 171912Z 09008KT 34/16 A2999 RMK A01 T03360164  RH  036%=      5-min Rain = 0
KMD1 171913Z 07010KT 34/16 A2999 RMK A01 T03400162  RH  035%=      5-min Rain = 0
KMD1 171914Z 05009KT 34/16 A2999 RMK A01 T03350159  RH  035%=      5-min Rain = 0
KMD1 171915Z 04008KT 33/16 A2999 RMK A01 T03280157  RH  036%=      5-min Rain = 0
KMD1 171916Z 07007KT 32/16 A2999 RMK A01 T03240158  RH  037%=      5-min Rain = 0
KMD1 171917Z 06006KT 32/16 A2999 RMK A01 T03220157  RH  037%=      5-min Rain = 0
KMD1 171918Z 05004KT 32/16 A2999 RMK A01 T03200156  RH  037%=      5-min Rain = 0
KMD1 171919Z 09007KT 32/16 A2999 RMK A01 T03190157  RH  038%=      5-min Rain = 0
KMD1 171920Z 10005KT 32/16 A2999 RMK A01 T03190157  RH  038%=      5-min Rain = 0
KMD1 171921Z 10005KT 32/16 A2999 RMK A01 T03210157  RH  037%=      5-min Rain = 0
KMD1 171922Z 11005KT 32/16 A2998 RMK A01 T03230160  RH  038%=      5-min Rain = 0
KMD1 171923Z 10006KT 33/16 A2998 RMK A01 T03270159  RH  036%=      5-min Rain = 0
KMD1 171924Z 13005KT 33/16 A2998 RMK A01 T03280158  RH  036%=      5-min Rain = 0
KMD1 171925Z 12005KT 33/16 A2998 RMK A01 T03300158  RH  036%=      5-min Rain = 0
KMD1 171926Z 11002KT 33/16 A2998 RMK A01 T03300158  RH  036%=      5-min Rain = 0
KMD1 171927Z 16003KT 33/16 A2998 RMK A01 T03310159  RH  036%=      5-min Rain = 0
KMD1 171928Z 17003KT 33/16 A2998 RMK A01 T03310158  RH  035%=      5-min Rain = 0
KMD1 171929Z 18003KT 33/16 A2998 RMK A01 T03320157  RH  035%=      5-min Rain = 0
KMD1 171930Z 15003KT 33/16 A2998 RMK A01 T03320159  RH  035%=      5-min Rain = 0
KMD1 171931Z 12004KT 33/16 A2998 RMK A01 T03330160  RH  036%=      5-min Rain = 0
KMD1 171932Z 06006G13KT 34/16 A2998 RMK A01 T03360162  RH  035%=      5-min Rain = 0
KMD1 171933Z 04010KT 34/16 A2998 RMK A01 T03390162  RH  035%=      5-min Rain = 0
KMD1 171934Z 05007KT 34/16 A2998 RMK A01 T03390163  RH  035%=      5-min Rain = 0
KMD1 171935Z 03010KT 34/16 A2998 RMK A01 T03400161  RH  034%=      5-min Rain = 0
KMD1 171936Z 03009KT 34/16 A2998 RMK A01 T03360158  RH  034%=      5-min Rain = 0
KMD1 171937Z 03010KT 33/16 A2998 RMK A01 T03310158  RH  036%=      5-min Rain = 0
KMD1 171938Z 04007KT 33/16 A2998 RMK A01 T03280159  RH  036%=      5-min Rain = 0
KMD1 171939Z 04004KT 33/16 A2998 RMK A01 T03270157  RH  036%=      5-min Rain = 0
KMD1 171940Z 02004KT 32/16 A2998 RMK A01 T03240157  RH  037%=      5-min Rain = 0
KMD1 171941Z 03004KT 33/16 A2998 RMK A01 T03250158  RH  037%=      5-min Rain = 0
KMD1 171942Z 02006KT 33/16 A2998 RMK A01 T03250159  RH  037%=      5-min Rain = 0
KMD1 171943Z 04009KT 33/16 A2998 RMK A01 T03280161  RH  037%=      5-min Rain = 0
KMD1 171944Z 03007KT 33/16 A2998 RMK A01 T03290160  RH  036%=      5-min Rain = 0
KMD1 171945Z 03005KT 33/16 A2998 RMK A01 T03260159  RH  037%=      5-min Rain = 0
KMD1 171946Z 06008KT 32/16 A2998 RMK A01 T03240161  RH  037%=      5-min Rain = 0
KMD1 171947Z 04006KT 32/16 A2998 RMK A01 T03230160  RH  038%=      5-min Rain = 0
KMD1 171948Z 04007KT 32/16 A2998 RMK A01 T03220160  RH  038%=      5-min Rain = 0
KMD1 171949Z 06009KT 32/16 A2998 RMK A01 T03200160  RH  038%=      5-min Rain = 0
KMD1 171950Z 05009KT 32/16 A2998 RMK A01 T03190160  RH  038%=      5-min Rain = 0
KMD1 171951Z 04009KT 32/16 A2998 RMK A01 T03190159  RH  038%=      5-min Rain = 0
KMD1 171952Z 03007KT 32/16 A2997 RMK A01 T03180159  RH  038%=      5-min Rain = 0
KMD1 171953Z 03007KT 32/16 A2997 RMK A01 T03180160  RH  039%=      5-min Rain = 0
KMD1 171954Z 03006KT 32/16 A2997 RMK A01 T03210160  RH  038%=      5-min Rain = 0
KMD1 171955Z 01006KT 32/16 A2997 RMK A01 T03230160  RH  038%=      5-min Rain = 0
KMD1 171956Z 36006KT 33/16 A2997 RMK A01 T03260160  RH  037%=      5-min Rain = 0
KMD1 171957Z 35005KT 33/16 A2997 RMK A01 T03290161  RH  036%=      5-min Rain = 0
KMD1 171958Z 35004KT 33/16 A2997 RMK A01 T03340162  RH  036%=      5-min Rain = 0
KMD1 171959Z 33003KT 34/16 A2997 RMK A01 T03350160  RH  035%=      5-min Rain = 0
KMD1 172000Z 00005KT 34/16 A2997 RMK A01 T03360162  RH  035%=      5-min Rain = 0
KMD1 172001Z 01007KT 34/16 A2997 RMK A01 T03360159  RH  035%=      5-min Rain = 0
KMD1 172002Z 35008KT 34/16 A2997 RMK A01 T03360160  RH  035%=      5-min Rain = 0
KMD1 172003Z 02010KT 34/16 A2997 RMK A01 T03390161  RH  035%=      5-min Rain = 0
KMD1 172004Z 02008KT 34/16 A2997 RMK A01 T03400158  RH  034%=      5-min Rain = 0
KMD1 172005Z 35005KT 34/16 A2997 RMK A01 T03350157  RH  034%=      5-min Rain = 0
KMD1 172006Z 33005KT 33/16 A2996 RMK A01 T03330158  RH  035%=      5-min Rain = 0
KMD1 172007Z 35005KT 33/16 A2996 RMK A01 T03330160  RH  036%=      5-min Rain = 0
KMD1 172008Z 02002KT 33/16 A2996 RMK A01 T03340155  RH  034%=      5-min Rain = 0
KMD1 172009Z 13005KT 33/16 A2996 RMK A01 T03330157  RH  035%=      5-min Rain = 0
KMD1 172010Z 11007KT 34/16 A2996 RMK A01 T03350156  RH  034%=      5-min Rain = 0
KMD1 172011Z 10009KT 34/16 A2996 RMK A01 T03390159  RH  034%=      5-min Rain = 0
KMD1 172012Z 10011KT 34/16 A2996 RMK A01 T03420158  RH  033%=      5-min Rain = 0
KMD1 172013Z 11009KT 34/16 A2996 RMK A01 T03410159  RH  034%=      5-min Rain = 0
KMD1 172014Z 07007KT 34/16 A2996 RMK A01 T03420160  RH  034%=      5-min Rain = 0
KMD1 172015Z 03008KT 34/16 A2996 RMK A01 T03420158  RH  033%=      5-min Rain = 0
KMD1 172016Z 04006KT 34/16 A2996 RMK A01 T03390157  RH  034%=      5-min Rain = 0
KMD1 172017Z 03002KT 34/16 A2996 RMK A01 T03370157  RH  034%=      5-min Rain = 0
KMD1 172018Z 04004KT 34/16 A2996 RMK A01 T03360158  RH  034%=      5-min Rain = 0
KMD1 172019Z 07004KT 34/16 A2996 RMK A01 T03370157  RH  034%=      5-min Rain = 0
KMD1 172020Z 07005KT 34/16 A2996 RMK A01 T03360157  RH  034%=      5-min Rain = 0
KMD1 172021Z 03008G13KT 34/16 A2996 RMK A01 T03350159  RH  035%=      5-min Rain = 0
KMD1 172022Z 03005KT 34/16 A2996 RMK A01 T03360161  RH  035%=      5-min Rain = 0
KMD1 172023Z 01011KT 34/16 A2996 RMK A01 T03390163  RH  035%=      5-min Rain = 0
KMD1 172024Z 02011KT 34/16 A2996 RMK A01 T03420162  RH  034%=      5-min Rain = 0
KMD1 172025Z 03006KT 34/16 A2996 RMK A01 T03390159  RH  034%=      5-min Rain = 0
KMD1 172026Z 07007KT 34/16 A2996 RMK A01 T03350161  RH  035%=      5-min Rain = 0
KMD1 172027Z 04008KT 34/16 A2996 RMK A01 T03380162  RH  035%=      5-min Rain = 0
KMD1 172028Z 03007KT 34/16 A2996 RMK A01 T03400161  RH  034%=      5-min Rain = 0
KMD1 172029Z 05006KT 34/16 A2996 RMK A01 T03390162  RH  035%=      5-min Rain = 0
KMD1 172030Z 05008KT 34/16 A2996 RMK A01 T03370159  RH  035%=      5-min Rain = 0
KMD1 172031Z 03008KT 33/16 A2996 RMK A01 T03310157  RH  035%=      5-min Rain = 0
KMD1 172032Z 04009KT 33/16 A2996 RMK A01 T03290157  RH  036%=      5-min Rain = 0
KMD1 172033Z 03008KT 33/16 A2996 RMK A01 T03260156  RH  036%=      5-min Rain = 0
KMD1 172034Z 03006KT 33/16 A2996 RMK A01 T03260157  RH  036%=      5-min Rain = 0
KMD1 172035Z 03006KT 33/16 A2996 RMK A01 T03260157  RH  036%=      5-min Rain = 0
KMD1 172036Z 02006KT 33/16 A2996 RMK A01 T03260156  RH  036%=      5-min Rain = 0
KMD1 172037Z 02006KT 33/16 A2996 RMK A01 T03260156  RH  036%=      5-min Rain = 0
KMD1 172038Z 00005KT 33/16 A2996 RMK A01 T03250156  RH  036%=      5-min Rain = 0
KMD1 172039Z 01004KT 33/16 A2996 RMK A01 T03250155  RH  036%=      5-min Rain = 0
KMD1 172040Z 02005KT 33/16 A2996 RMK A01 T03250155  RH  036%=      5-min Rain = 0
KMD1 172041Z 02003KT 32/15 A2996 RMK A01 T03240154  RH  036%=      5-min Rain = 0
KMD1 172042Z 03004KT 32/16 A2996 RMK A01 T03230155  RH  036%=      5-min Rain = 0
KMD1 172043Z 01006KT 32/16 A2996 RMK A01 T03230156  RH  037%=      5-min Rain = 0
KMD1 172044Z 02006KT 32/15 A2996 RMK A01 T03240154  RH  036%=      5-min Rain = 0
KMD1 172045Z 02006KT 33/15 A2995 RMK A01 T03250154  RH  036%=      5-min Rain = 0
KMD1 172046Z 01006KT 33/16 A2995 RMK A01 T03270156  RH  036%=      5-min Rain = 0
KMD1 172047Z 36005KT 33/16 A2995 RMK A01 T03310156  RH  035%=      5-min Rain = 0
KMD1 172048Z 36004KT 34/16 A2995 RMK A01 T03350158  RH  034%=      5-min Rain = 0
KMD1 172049Z 01004KT 34/16 A2995 RMK A01 T03370157  RH  034%=      5-min Rain = 0
KMD1 172050Z 04005KT 34/16 A2995 RMK A01 T03390158  RH  034%=      5-min Rain = 0
KMD1 172051Z 02002KT 34/16 A2995 RMK A01 T03400156  RH  033%=      5-min Rain = 0
KMD1 172052Z 03004KT 34/16 A2995 RMK A01 T03400157  RH  034%=      5-min Rain = 0
KMD1 172053Z 02003KT 34/16 A2995 RMK A01 T03390156  RH  033%=      5-min Rain = 0
KMD1 172054Z 07003KT 34/16 A2995 RMK A01 T03380156  RH  034%=      5-min Rain = 0
KMD1 172055Z 10005KT 34/16 A2995 RMK A01 T03380155  RH  034%=      5-min Rain = 0
KMD1 172056Z 08005KT 34/15 A2995 RMK A01 T03380154  RH  033%=      5-min Rain = 0
KMD1 172057Z 06006KT 34/16 A2995 RMK A01 T03370156  RH  034%=      5-min Rain = 0
KMD1 172058Z 07008KT 34/16 A2995 RMK A01 T03380157  RH  034%=      5-min Rain = 0
KMD1 172059Z 09008KT 34/15 A2995 RMK A01 T03400154  RH  033%=      5-min Rain = 0
KMD1 172100Z 08007KT 34/16 A2995 RMK A01 T03380156  RH  034%=      5-min Rain = 0
KMD1 172101Z 09007KT 34/16 A2995 RMK A01 T03380157  RH  034%=      5-min Rain = 0
KMD1 172102Z 12009KT 34/16 A2995 RMK A01 T03410157  RH  033%=      5-min Rain = 0
KMD1 172103Z 11009KT 34/16 A2995 RMK A01 T03420156  RH  033%=      5-min Rain = 0
KMD1 172104Z 12007KT 34/16 A2995 RMK A01 T03410156  RH  033%=      5-min Rain = 0
KMD1 172105Z 15006KT 34/16 A2995 RMK A01 T03420157  RH  033%=      5-min Rain = 0
KMD1 172106Z 11005KT 34/16 A2995 RMK A01 T03420156  RH  033%=      5-min Rain = 0
KMD1 172107Z 07004KT 34/15 A2995 RMK A01 T03400153  RH  033%=      5-min Rain = 0
KMD1 172108Z 07006KT 34/16 A2995 RMK A01 T03380155  RH  033%=      5-min Rain = 0
KMD1 172109Z 08006KT 34/16 A2995 RMK A01 T03390155  RH  033%=      5-min Rain = 0
KMD1 172110Z 08006KT 34/15 A2995 RMK A01 T03380153  RH  033%=      5-min Rain = 0
KMD1 172111Z 07005KT 34/15 A2995 RMK A01 T03370154  RH  034%=      5-min Rain = 0
KMD1 172112Z 13003KT 34/16 A2995 RMK A01 T03370155  RH  034%=      5-min Rain = 0
KMD1 172113Z 11005KT 34/16 A2995 RMK A01 T03390156  RH  033%=      5-min Rain = 0
KMD1 172114Z 13004KT 34/15 A2995 RMK A01 T03410153  RH  033%=      5-min Rain = 0
KMD1 172115Z 11002KT 34/15 A2995 RMK A01 T03390153  RH  033%=      5-min Rain = 0
KMD1 172116Z 06002KT 34/15 A2995 RMK A01 T03370154  RH  033%=      5-min Rain = 0
KMD1 172117Z 35001KT 34/16 A2995 RMK A01 T03380156  RH  034%=      5-min Rain = 0
KMD1 172118Z 29002KT 34/15 A2994 RMK A01 T03400154  RH  033%=      5-min Rain = 0
KMD1 172119Z 29001KT 34/15 A2994 RMK A01 T03400153  RH  033%=      5-min Rain = 0
KMD1 172120Z 12000KT 34/16 A2994 RMK A01 T03400157  RH  033%=      5-min Rain = 0
KMD1 172121Z 13001KT 34/16 A2994 RMK A01 T03440157  RH  033%=      5-min Rain = 0
KMD1 172122Z 12003KT 35/16 A2994 RMK A01 T03470158  RH  032%=      5-min Rain = 0
KMD1 172123Z 06003KT 35/16 A2994 RMK A01 T03480156  RH  032%=      5-min Rain = 0
KMD1 172124Z 03004KT 35/16 A2994 RMK A01 T03460156  RH  032%=      5-min Rain = 0
KMD1 172125Z 03004KT 35/16 A2994 RMK A01 T03450155  RH  032%=      5-min Rain = 0
KMD1 172126Z 01003KT 34/15 A2994 RMK A01 T03430152  RH  032%=      5-min Rain = 0
KMD1 172127Z 35004KT 34/16 A2994 RMK A01 T03420155  RH  033%=      5-min Rain = 0
KMD1 172128Z 02006KT 34/16 A2994 RMK A01 T03440155  RH  032%=      5-min Rain = 0
KMD1 172129Z 00005KT 34/15 A2994 RMK A01 T03430154  RH  032%=      5-min Rain = 0
KMD1 172130Z 02005KT 34/15 A2994 RMK A01 T03410153  RH  032%=      5-min Rain = 0
KMD1 172131Z 02006KT 34/16 A2994 RMK A01 T03400156  RH  033%=      5-min Rain = 0
KMD1 172132Z 04005KT 34/16 A2994 RMK A01 T03410157  RH  033%=      5-min Rain = 0
KMD1 172133Z 05010KT 34/16 A2994 RMK A01 T03440159  RH  033%=      5-min Rain = 0
KMD1 172134Z 05012KT 35/16 A2994 RMK A01 T03450158  RH  033%=      5-min Rain = 0
KMD1 172135Z 05013KT 34/16 A2994 RMK A01 T03430156  RH  033%=      5-min Rain = 0
KMD1 172136Z 06010KT 34/16 A2994 RMK A01 T03400157  RH  034%=      5-min Rain = 0
KMD1 172137Z 06008G13KT 34/16 A2994 RMK A01 T03390156  RH  033%=      5-min Rain = 0
KMD1 172138Z 07007KT 34/16 A2994 RMK A01 T03380158  RH  034%=      5-min Rain = 0
KMD1 172139Z 05008KT 34/16 A2994 RMK A01 T03410157  RH  033%=      5-min Rain = 0
KMD1 172140Z 04008KT 34/16 A2994 RMK A01 T03420157  RH  033%=      5-min Rain = 0
KMD1 172141Z 05009KT 34/16 A2994 RMK A01 T03420156  RH  033%=      5-min Rain = 0
KMD1 172142Z 08007KT 34/16 A2994 RMK A01 T03400155  RH  033%=      5-min Rain = 0
KMD1 172143Z 08007KT 34/16 A2994 RMK A01 T03380155  RH  033%=      5-min Rain = 0
KMD1 172144Z 06010KT 34/16 A2994 RMK A01 T03380156  RH  034%=      5-min Rain = 0
KMD1 172145Z 06009KT 34/15 A2994 RMK A01 T03380154  RH  033%=      5-min Rain = 0
KMD1 172146Z 05007KT 34/15 A2994 RMK A01 T03370154  RH  033%=      5-min Rain = 0
KMD1 172147Z 05008KT 34/16 A2994 RMK A01 T03380155  RH  033%=      5-min Rain = 0
KMD1 172148Z 06010KT 34/15 A2994 RMK A01 T03390154  RH  033%=      5-min Rain = 0
KMD1 172149Z 05011KT 34/15 A2994 RMK A01 T03390154  RH  033%=      5-min Rain = 0
KMD1 172150Z 05007KT 34/15 A2994 RMK A01 T03380153  RH  033%=      5-min Rain = 0
KMD1 172151Z 05007KT 34/15 A2994 RMK A01 T03380153  RH  033%=      5-min Rain = 0
KMD1 172152Z 06008KT 34/15 A2994 RMK A01 T03370154  RH  033%=      5-min Rain = 0
KMD1 172153Z 08007KT 34/15 A2994 RMK A01 T03370154  RH  033%=      5-min Rain = 0
KMD1 172154Z 07006KT 34/16 A2994 RMK A01 T03380155  RH  033%=      5-min Rain = 0
KMD1 172155Z 07007KT 34/16 A2994 RMK A01 T03380155  RH  033%=      5-min Rain = 0
KMD1 172156Z 07006KT 34/15 A2994 RMK A01 T03380153  RH  033%=      5-min Rain = 0
KMD1 172157Z 06005KT 34/16 A2994 RMK A01 T03370155  RH  033%=      5-min Rain = 0
KMD1 172158Z 07005KT 34/15 A2994 RMK A01 T03380154  RH  033%=      5-min Rain = 0
KMD1 172159Z 09005KT 34/15 A2994 RMK A01 T03370154  RH  033%=      5-min Rain = 0
KMD1 172200Z 08005KT 34/15 A2994 RMK A01 T03360153  RH  033%=      5-min Rain = 0
KMD1 172201Z 06009KT 34/16 A2994 RMK A01 T03350156  RH  034%=      5-min Rain = 0
KMD1 172202Z 07010KT 34/16 A2994 RMK A01 T03370157  RH  034%=      5-min Rain = 0
KMD1 172203Z 05008KT 34/16 A2994 RMK A01 T03390156  RH  034%=      5-min Rain = 0
KMD1 172204Z 04007KT 34/16 A2994 RMK A01 T03380156  RH  034%=      5-min Rain = 0
KMD1 172205Z 05007KT 34/16 A2994 RMK A01 T03370157  RH  034%=      5-min Rain = 0
KMD1 172206Z 06008KT 34/16 A2994 RMK A01 T03390157  RH  034%=      5-min Rain = 0
KMD1 172207Z 06005KT 34/16 A2994 RMK A01 T03390156  RH  033%=      5-min Rain = 0
KMD1 172208Z 07006KT 34/16 A2994 RMK A01 T03370157  RH  034%=      5-min Rain = 0
KMD1 172209Z 07004KT 34/16 A2994 RMK A01 T03360155  RH  034%=      5-min Rain = 0
KMD1 172210Z 08003KT 34/16 A2993 RMK A01 T03350155  RH  034%=      5-min Rain = 0
KMD1 172211Z 04002KT 34/15 A2993 RMK A01 T03350154  RH  034%=      5-min Rain = 0
KMD1 172212Z 04005G11KT 33/16 A2993 RMK A01 T03340156  RH  034%=      5-min Rain = 0
KMD1 172213Z 07007KT 34/16 A2993 RMK A01 T03370157  RH  034%=      5-min Rain = 0
KMD1 172214Z 07007KT 34/16 A2993 RMK A01 T03380158  RH  034%=      5-min Rain = 0
KMD1 172215Z 06008KT 34/16 A2993 RMK A01 T03380156  RH  034%=      5-min Rain = 0
KMD1 172216Z 07006KT 34/15 A2993 RMK A01 T03370153  RH  033%=      5-min Rain = 0
KMD1 172217Z 06006KT 34/15 A2993 RMK A01 T03350154  RH  034%=      5-min Rain = 0
KMD1 172218Z 05006KT 34/15 A2993 RMK A01 T03350153  RH  034%=      5-min Rain = 0
KMD1 172219Z 04006KT 34/15 A2993 RMK A01 T03350153  RH  034%=      5-min Rain = 0
KMD1 172220Z 04005KT 34/15 A2993 RMK A01 T03350152  RH  033%=      5-min Rain = 0
KMD1 172221Z 07004KT 34/15 A2993 RMK A01 T03350152  RH  033%=      5-min Rain = 0
KMD1 172222Z 09002KT 34/15 A2993 RMK A01 T03350151  RH  033%=      5-min Rain = 0
KMD1 172223Z 11002KT 34/15 A2993 RMK A01 T03350151  RH  033%=      5-min Rain = 0
KMD1 172224Z 12001KT 34/16 A2993 RMK A01 T03360155  RH  034%=      5-min Rain = 0
KMD1 172225Z 09002KT 34/15 A2993 RMK A01 T03380154  RH  033%=      5-min Rain = 0
KMD1 172226Z 05004KT 34/15 A2993 RMK A01 T03390152  RH  033%=      5-min Rain = 0
KMD1 172227Z 06008KT 34/15 A2993 RMK A01 T03390150  RH  032%=      5-min Rain = 0
KMD1 172228Z 06007KT 34/15 A2993 RMK A01 T03390149  RH  032%=      5-min Rain = 0
KMD1 172229Z 06006KT 34/15 A2993 RMK A01 T03380149  RH  032%=      5-min Rain = 0
KMD1 172230Z 06006KT 34/15 A2993 RMK A01 T03370150  RH  032%=      5-min Rain = 0
KMD1 172231Z 06006KT 34/15 A2993 RMK A01 T03370148  RH  032%=      5-min Rain = 0
KMD1 172232Z 06004KT 34/15 A2993 RMK A01 T03370148  RH  032%=      5-min Rain = 0
KMD1 172233Z 08000KT 34/15 A2993 RMK A01 T03380146  RH  032%=      5-min Rain = 0
KMD1 172234Z 31000KT 34/15 A2993 RMK A01 T03370148  RH  032%=      5-min Rain = 0
KMD1 172235Z 25000KT 34/15 A2993 RMK A01 T03390147  RH  032%=      5-min Rain = 0
KMD1 172236Z 24001KT 34/15 A2993 RMK A01 T03400150  RH  032%=      5-min Rain = 0
KMD1 172237Z 20002KT 34/15 A2992 RMK A01 T03430153  RH  032%=      5-min Rain = 0
KMD1 172238Z 16003KT 35/15 A2992 RMK A01 T03450152  RH  032%=      5-min Rain = 0
KMD1 172239Z 13003KT 35/15 A2992 RMK A01 T03460152  RH  031%=      5-min Rain = 0
KMD1 172240Z 09005KT 35/15 A2992 RMK A01 T03450154  RH  032%=      5-min Rain = 0
KMD1 172241Z 05005KT 34/15 A2992 RMK A01 T03440153  RH  032%=      5-min Rain = 0
KMD1 172242Z 05004KT 34/15 A2992 RMK A01 T03400151  RH  032%=      5-min Rain = 0
KMD1 172243Z 04003KT 34/15 A2992 RMK A01 T03380151  RH  032%=      5-min Rain = 0
KMD1 172244Z 04003KT 34/15 A2992 RMK A01 T03380151  RH  033%=      5-min Rain = 0
KMD1 172245Z 04005KT 34/15 A2992 RMK A01 T03370151  RH  033%=      5-min Rain = 0
KMD1 172246Z 03006KT 34/15 A2992 RMK A01 T03380152  RH  033%=      5-min Rain = 0
KMD1 172247Z 03006KT 34/15 A2992 RMK A01 T03380153  RH  033%=      5-min Rain = 0
KMD1 172248Z 03005KT 34/15 A2992 RMK A01 T03380151  RH  033%=      5-min Rain = 0
KMD1 172249Z 05006KT 34/15 A2992 RMK A01 T03380152  RH  033%=      5-min Rain = 0
KMD1 172250Z 06005KT 34/15 A2992 RMK A01 T03370149  RH  032%=      5-min Rain = 0
KMD1 172251Z 06005KT 34/15 A2992 RMK A01 T03350149  RH  033%=      5-min Rain = 0
KMD1 172252Z 06003KT 33/15 A2992 RMK A01 T03340148  RH  033%=      5-min Rain = 0
KMD1 172253Z 04001KT 33/15 A2992 RMK A01 T03340150  RH  033%=      5-min Rain = 0
KMD1 172254Z 03000KT 34/15 A2992 RMK A01 T03350148  RH  032%=      5-min Rain = 0
KMD1 172255Z 00000KT 34/15 A2992 RMK A01 T03370151  RH  033%=      5-min Rain = 0
KMD1 172256Z 06000KT 34/15 A2992 RMK A01 T03390147  RH  032%=      5-min Rain = 0
KMD1 172257Z 07001KT 34/15 A2992 RMK A01 T03390149  RH  032%=      5-min Rain = 0
KMD1 172258Z 02001KT 34/15 A2992 RMK A01 T03390149  RH  032%=      5-min Rain = 0
KMD1 172259Z 05003KT 34/15 A2992 RMK A01 T03390151  RH  033%=      5-min Rain = 0
KMD1 172300Z 05004KT 34/16 A2992 RMK A01 T03400155  RH  033%=      5-min Rain = 0
KMD1 172301Z 07005KT 34/15 A2992 RMK A01 T03400153  RH  033%=      5-min Rain = 0
KMD1 172302Z 09006KT 34/15 A2992 RMK A01 T03390153  RH  033%=      5-min Rain = 0
KMD1 172303Z 09007KT 34/15 A2992 RMK A01 T03370153  RH  033%=      5-min Rain = 0
KMD1 172304Z 09006KT 34/15 A2992 RMK A01 T03370153  RH  033%=      5-min Rain = 0
KMD1 172305Z 08005KT 34/15 A2992 RMK A01 T03360153  RH  033%=      5-min Rain = 0
KMD1 172306Z 07007KT 34/15 A2992 RMK A01 T03370154  RH  033%=      5-min Rain = 0
KMD1 172307Z 08006KT 34/15 A2992 RMK A01 T03360152  RH  033%=      5-min Rain = 0
KMD1 172308Z 07005KT 34/15 A2992 RMK A01 T03350151  RH  033%=      5-min Rain = 0
KMD1 172309Z 07004KT 33/15 A2992 RMK A01 T03340152  RH  034%=      5-min Rain = 0
KMD1 172310Z 10004KT 34/15 A2992 RMK A01 T03350154  RH  034%=      5-min Rain = 0
KMD1 172311Z 11007KT 34/15 A2992 RMK A01 T03360151  RH  033%=      5-min Rain = 0
KMD1 172312Z 11007KT 34/15 A2992 RMK A01 T03350150  RH  033%=      5-min Rain = 0
KMD1 172313Z 12007KT 34/15 A2992 RMK A01 T03350150  RH  033%=      5-min Rain = 0
KMD1 172314Z 09007KT 33/15 A2992 RMK A01 T03340150  RH  033%=      5-min Rain = 0
KMD1 172315Z 08006KT 34/15 A2992 RMK A01 T03350152  RH  033%=      5-min Rain = 0
KMD1 172316Z 10007KT 33/15 A2992 RMK A01 T03340150  RH  033%=      5-min Rain = 0
KMD1 172317Z 08007KT 33/15 A2992 RMK A01 T03340153  RH  034%=      5-min Rain = 0
KMD1 172318Z 07009KT 34/16 A2992 RMK A01 T03350156  RH  034%=      5-min Rain = 0
KMD1 172319Z 08009KT 34/16 A2992 RMK A01 T03350157  RH  034%=      5-min Rain = 0
KMD1 172320Z 08009KT 33/16 A2991 RMK A01 T03340157  RH  035%=      5-min Rain = 0
KMD1 172321Z 09009KT 33/16 A2991 RMK A01 T03330157  RH  035%=      5-min Rain = 0
KMD1 172322Z 07010KT 33/16 A2992 RMK A01 T03320157  RH  035%=      5-min Rain = 0
KMD1 172323Z 07009KT 33/16 A2992 RMK A01 T03320156  RH  035%=      5-min Rain = 0
KMD1 172324Z 06008KT 33/16 A2991 RMK A01 T03310156  RH  035%=      5-min Rain = 0
KMD1 172325Z 08006KT 33/16 A2992 RMK A01 T03300157  RH  035%=      5-min Rain = 0
KMD1 172326Z 08006KT 33/16 A2992 RMK A01 T03310156  RH  035%=      5-min Rain = 0
KMD1 172327Z 09006KT 33/16 A2992 RMK A01 T03310157  RH  035%=      5-min Rain = 0
KMD1 172328Z 07007KT 33/16 A2992 RMK A01 T03310158  RH  035%=      5-min Rain = 0
KMD1 172329Z 06008KT 33/16 A2992 RMK A01 T03320156  RH  035%=      5-min Rain = 0
KMD1 172330Z 06010KT 33/16 A2992 RMK A01 T03310155  RH  035%=      5-min Rain = 0
KMD1 172331Z 07009KT 33/16 A2992 RMK A01 T03310155  RH  035%=      5-min Rain = 0
KMD1 172332Z 07007KT 33/16 A2992 RMK A01 T03300156  RH  035%=      5-min Rain = 0
KMD1 172333Z 07006KT 33/16 A2992 RMK A01 T03300157  RH  035%=      5-min Rain = 0
KMD1 172334Z 07006KT 33/16 A2992 RMK A01 T03310159  RH  036%=      5-min Rain = 0
KMD1 172335Z 07006KT 33/16 A2992 RMK A01 T03320157  RH  035%=      5-min Rain = 0
KMD1 172336Z 07009KT 33/16 A2992 RMK A01 T03310156  RH  035%=      5-min Rain = 0
KMD1 172337Z 06008KT 33/16 A2992 RMK A01 T03300155  RH  035%=      5-min Rain = 0
KMD1 172338Z 06008KT 33/15 A2992 RMK A01 T03300154  RH  035%=      5-min Rain = 0
KMD1 172339Z 06009KT 33/16 A2992 RMK A01 T03290155  RH  035%=      5-min Rain = 0
KMD1 172340Z 06008KT 33/15 A2992 RMK A01 T03280154  RH  035%=      5-min Rain = 0
KMD1 172341Z 06009KT 33/15 A2992 RMK A01 T03280154  RH  035%=      5-min Rain = 0
KMD1 172342Z 06008KT 33/15 A2992 RMK A01 T03280154  RH  035%=      5-min Rain = 0
KMD1 172343Z 06007KT 33/16 A2992 RMK A01 T03270155  RH  035%=      5-min Rain = 0
KMD1 172344Z 06007KT 33/15 A2992 RMK A01 T03270154  RH  035%=      5-min Rain = 0
KMD1 172345Z 07007KT 33/16 A2992 RMK A01 T03270155  RH  035%=      5-min Rain = 0
KMD1 172346Z 07008KT 33/15 A2991 RMK A01 T03270154  RH  035%=      5-min Rain = 0
KMD1 172347Z 06006KT 33/15 A2991 RMK A01 T03270154  RH  035%=      5-min Rain = 0
KMD1 172348Z 06005KT 33/15 A2991 RMK A01 T03260154  RH  036%=      5-min Rain = 0
KMD1 172349Z 06006KT 33/16 A2991 RMK A01 T03270155  RH  036%=      5-min Rain = 0
KMD1 172350Z 06008KT 33/16 A2991 RMK A01 T03260155  RH  036%=      5-min Rain = 0
KMD1 172351Z 06008KT 33/15 A2991 RMK A01 T03260153  RH  035%=      5-min Rain = 0
KMD1 172352Z 06008KT 33/15 A2991 RMK A01 T03260153  RH  035%=      5-min Rain = 0
KMD1 172353Z 06007KT 33/15 A2991 RMK A01 T03250154  RH  036%=      5-min Rain = 0
KMD1 172354Z 06007KT 33/15 A2991 RMK A01 T03250154  RH  036%=      5-min Rain = 0
KMD1 172355Z 06007KT 33/15 A2991 RMK A01 T03250154  RH  036%=      5-min Rain = 0
KMD1 172356Z 05006KT 33/15 A2991 RMK A01 T03250154  RH  036%=      5-min Rain = 0
KMD1 172357Z 06005KT 33/16 A2991 RMK A01 T03250156  RH  036%=      5-min Rain = 0
KMD1 172358Z 07006KT 32/16 A2991 RMK A01 T03240156  RH  036%=      5-min Rain = 0
KMD1 172359Z 06006KT 32/16 A2991 RMK A01 T03240155  RH  036%=      5-min Rain = 0
KMD1 180000Z 06006KT 32/16 A2991 RMK A01 T03240155  RH  036%=      5-min Rain = 0
KMD1 180001Z 05005KT 32/16 A2991 RMK A01 T03230155  RH  036%=      5-min Rain = 0
KMD1 180002Z 05005KT 32/16 A2991 RMK A01 T03230156  RH  037%=      5-min Rain = 0
KMD1 180003Z 05006KT 32/16 A2991 RMK A01 T03230155  RH  036%=      5-min Rain = 0
KMD1 180004Z 05006KT 32/16 A2991 RMK A01 T03230156  RH  037%=      5-min Rain = 0
KMD1 180005Z 05005KT 32/16 A2991 RMK A01 T03230155  RH  036%=      5-min Rain = 0
KMD1 180006Z 06005KT 32/15 A2991 RMK A01 T03220154  RH  036%=      5-min Rain = 0
KMD1 180007Z 07004KT 32/16 A2991 RMK A01 T03220155  RH  037%=      5-min Rain = 0
KMD1 180008Z 07004KT 32/16 A2991 RMK A01 T03220157  RH  037%=      5-min Rain = 0
KMD1 180009Z 07004KT 32/16 A2991 RMK A01 T03210156  RH  037%=      5-min Rain = 0
KMD1 180010Z 07005KT 32/16 A2991 RMK A01 T03210156  RH  037%=      5-min Rain = 0
KMD1 180011Z 07005KT 32/16 A2991 RMK A01 T03200156  RH  037%=      5-min Rain = 0
KMD1 180012Z 07005KT 32/16 A2991 RMK A01 T03200156  RH  037%=      5-min Rain = 0
KMD1 180013Z 07004KT 32/16 A2991 RMK A01 T03190156  RH  037%=      5-min Rain = 0
KMD1 180014Z 07005KT 32/16 A2991 RMK A01 T03190157  RH  038%=      5-min Rain = 0
KMD1 180015Z 07004KT 32/16 A2991 RMK A01 T03180157  RH  038%=      5-min Rain = 0
KMD1 180016Z 07005KT 32/16 A2991 RMK A01 T03180158  RH  038%=      5-min Rain = 0
KMD1 180017Z 07005KT 32/16 A2991 RMK A01 T03170157  RH  038%=      5-min Rain = 0
KMD1 180018Z 07004KT 32/16 A2991 RMK A01 T03160157  RH  038%=      5-min Rain = 0
KMD1 180019Z 07006KT 32/16 A2991 RMK A01 T03150157  RH  038%=      5-min Rain = 0
KMD1 180020Z 07005KT 32/16 A2991 RMK A01 T03150156  RH  038%=      5-min Rain = 0
KMD1 180021Z 07005KT 32/16 A2991 RMK A01 T03150157  RH  039%=      5-min Rain = 0
KMD1 180022Z 07005KT 31/16 A2991 RMK A01 T03130156  RH  039%=      5-min Rain = 0
KMD1 180023Z 07005KT 31/16 A2991 RMK A01 T03130156  RH  039%=      5-min Rain = 0
KMD1 180024Z 07005KT 31/16 A2991 RMK A01 T03120156  RH  039%=      5-min Rain = 0
KMD1 180025Z 07005KT 31/16 A2991 RMK A01 T03110156  RH  039%=      5-min Rain = 0
KMD1 180026Z 07004KT 31/16 A2991 RMK A01 T03110157  RH  039%=      5-min Rain = 0
KMD1 180027Z 07004KT 31/16 A2991 RMK A01 T03100157  RH  040%=      5-min Rain = 0
KMD1 180028Z 07004KT 31/16 A2991 RMK A01 T03090157  RH  040%=      5-min Rain = 0
KMD1 180029Z 07004KT 31/16 A2991 RMK A01 T03080157  RH  040%=      5-min Rain = 0
KMD1 180030Z 07004KT 31/16 A2991 RMK A01 T03070157  RH  040%=      5-min Rain = 0
KMD1 180031Z 07005KT 31/16 A2991 RMK A01 T03070156  RH  040%=      5-min Rain = 0
KMD1 180032Z 07004KT 31/16 A2991 RMK A01 T03070157  RH  040%=      5-min Rain = 0
KMD1 180033Z 06005KT 31/16 A2991 RMK A01 T03070157  RH  040%=      5-min Rain = 0
KMD1 180034Z 07005KT 31/16 A2991 RMK A01 T03060157  RH  041%=      5-min Rain = 0
KMD1 180035Z 07005KT 31/16 A2991 RMK A01 T03050157  RH  041%=      5-min Rain = 0
KMD1 180036Z 07005KT 30/16 A2991 RMK A01 T03040157  RH  041%=      5-min Rain = 0
KMD1 180037Z 07004KT 30/16 A2991 RMK A01 T03030157  RH  041%=      5-min Rain = 0
KMD1 180038Z 07004KT 30/16 A2991 RMK A01 T03020157  RH  041%=      5-min Rain = 0
KMD1 180039Z 07006KT 30/16 A2992 RMK A01 T03020157  RH  042%=      5-min Rain = 0
KMD1 180040Z 07005KT 30/16 A2992 RMK A01 T03010156  RH  042%=      5-min Rain = 0
KMD1 180041Z 07005KT 30/16 A2992 RMK A01 T03010157  RH  042%=      5-min Rain = 0
KMD1 180042Z 07005KT 30/16 A2992 RMK A01 T03000157  RH  042%=      5-min Rain = 0
KMD1 180043Z 07005KT 30/16 A2992 RMK A01 T02990157  RH  042%=      5-min Rain = 0
KMD1 180044Z 07005KT 30/16 A2992 RMK A01 T02980157  RH  042%=      5-min Rain = 0
KMD1 180045Z 07005KT 30/16 A2992 RMK A01 T02980157  RH  043%=      5-min Rain = 0
KMD1 180046Z 07005KT 30/16 A2992 RMK A01 T02970157  RH  043%=      5-min Rain = 0
KMD1 180047Z 07005KT 30/16 A2992 RMK A01 T02970157  RH  043%=      5-min Rain = 0
KMD1 180048Z 07005KT 30/16 A2992 RMK A01 T02970157  RH  043%=      5-min Rain = 0
KMD1 180049Z 07005KT 30/16 A2992 RMK A01 T02970157  RH  043%=      5-min Rain = 0
KMD1 180050Z 07005KT 30/16 A2992 RMK A01 T02970157  RH  043%=      5-min Rain = 0
KMD1 180051Z 07005KT 30/16 A2992 RMK A01 T02960157  RH  043%=      5-min Rain = 0
KMD1 180052Z 07006KT 30/16 A2992 RMK A01 T02950157  RH  043%=      5-min Rain = 0
KMD1 180053Z 07005KT 30/16 A2992 RMK A01 T02960157  RH  043%=      5-min Rain = 0
KMD1 180054Z 07005KT 30/16 A2992 RMK A01 T02960157  RH  043%=      5-min Rain = 0
KMD1 180055Z 07005KT 30/16 A2992 RMK A01 T02950157  RH  043%=      5-min Rain = 0
KMD1 180056Z 07004KT 29/16 A2992 RMK A01 T02940157  RH  044%=      5-min Rain = 0
KMD1 180057Z 07004KT 29/16 A2992 RMK A01 T02930157  RH  044%=      5-min Rain = 0
KMD1 180058Z 06004KT 29/16 A2992 RMK A01 T02930158  RH  044%=      5-min Rain = 0
KMD1 180059Z 06004KT 29/16 A2992 RMK A01 T02920158  RH  044%=      5-min Rain = 0
KMD1 180100Z 06004KT 29/16 A2992 RMK A01 T02910157  RH  044%=      5-min Rain = 0
KMD1 180101Z 06004KT 29/16 A2992 RMK A01 T02900157  RH  044%=      5-min Rain = 0
KMD1 180102Z 06004KT 29/16 A2992 RMK A01 T02890157  RH  045%=      5-min Rain = 0
KMD1 180103Z 06005KT 29/16 A2993 RMK A01 T02880157  RH  045%=      5-min Rain = 0
KMD1 180104Z 06005KT 29/16 A2993 RMK A01 T02870157  RH  045%=      5-min Rain = 0
KMD1 180105Z 06004KT 29/16 A2993 RMK A01 T02860157  RH  045%=      5-min Rain = 0
KMD1 180106Z 06004KT 29/16 A2993 RMK A01 T02860157  RH  046%=      5-min Rain = 0
KMD1 180107Z 06004KT 29/16 A2993 RMK A01 T02850158  RH  046%=      5-min Rain = 0
KMD1 180108Z 06004KT 28/16 A2993 RMK A01 T02840158  RH  046%=      5-min Rain = 0
KMD1 180109Z 06004KT 28/16 A2993 RMK A01 T02820158  RH  047%=      5-min Rain = 0
KMD1 180110Z 06004KT 28/16 A2993 RMK A01 T02820158  RH  047%=      5-min Rain = 0
KMD1 180111Z 06004KT 28/16 A2993 RMK A01 T02820158  RH  047%=      5-min Rain = 0
KMD1 180112Z 07003KT 28/16 A2993 RMK A01 T02810158  RH  047%=      5-min Rain = 0
KMD1 180113Z 08003KT 28/16 A2993 RMK A01 T02810158  RH  047%=      5-min Rain = 0
KMD1 180114Z 09003KT 28/16 A2993 RMK A01 T02810157  RH  047%=      5-min Rain = 0
KMD1 180115Z 08003KT 28/16 A2993 RMK A01 T02820157  RH  047%=      5-min Rain = 0
KMD1 180116Z 08003KT 28/16 A2993 RMK A01 T02830157  RH  046%=      5-min Rain = 0
KMD1 180117Z 08003KT 28/16 A2993 RMK A01 T02830158  RH  046%=      5-min Rain = 0
KMD1 180118Z 08004KT 28/16 A2993 RMK A01 T02830158  RH  046%=      5-min Rain = 0
KMD1 180119Z 09003KT 28/16 A2993 RMK A01 T02830158  RH  047%=      5-min Rain = 0
KMD1 180120Z 09003KT 28/16 A2993 RMK A01 T02820158  RH  047%=      5-min Rain = 0
KMD1 180121Z 09003KT 28/16 A2993 RMK A01 T02810158  RH  047%=      5-min Rain = 0
KMD1 180122Z 09003KT 28/16 A2993 RMK A01 T02810158  RH  047%=      5-min Rain = 0
KMD1 180123Z 09003KT 28/16 A2993 RMK A01 T02800158  RH  048%=      5-min Rain = 0
KMD1 180124Z 09003KT 28/16 A2993 RMK A01 T02780158  RH  048%=      5-min Rain = 0
KMD1 180125Z 08002KT 28/16 A2993 RMK A01 T02760158  RH  048%=      5-min Rain = 0
KMD1 180126Z 08002KT 28/16 A2993 RMK A01 T02750158  RH  049%=      5-min Rain = 0
KMD1 180127Z 08003KT 27/16 A2993 RMK A01 T02740158  RH  049%=      5-min Rain = 0
KMD1 180128Z 07003KT 27/16 A2993 RMK A01 T02740158  RH  049%=      5-min Rain = 0
KMD1 180129Z 07003KT 27/16 A2993 RMK A01 T02740158  RH  049%=      5-min Rain = 0
KMD1 180130Z 07004KT 28/16 A2994 RMK A01 T02750158  RH  049%=      5-min Rain = 0
KMD1 180131Z 07003KT 28/16 A2994 RMK A01 T02760158  RH  049%=      5-min Rain = 0
KMD1 180132Z 07004KT 28/16 A2994 RMK A01 T02770158  RH  048%=      5-min Rain = 0
KMD1 180133Z 06004KT 28/16 A2994 RMK A01 T02770158  RH  048%=      5-min Rain = 0
KMD1 180134Z 06004KT 28/16 A2994 RMK A01 T02770158  RH  048%=      5-min Rain = 0
KMD1 180135Z 06004KT 28/16 A2994 RMK A01 T02770158  RH  048%=      5-min Rain = 0
KMD1 180136Z 07004KT 28/16 A2994 RMK A01 T02760159  RH  049%=      5-min Rain = 0
KMD1 180137Z 07004KT 28/16 A2994 RMK A01 T02750159  RH  049%=      5-min Rain = 0
KMD1 180138Z 07004KT 27/16 A2994 RMK A01 T02740159  RH  049%=      5-min Rain = 0
KMD1 180139Z 07004KT 27/16 A2994 RMK A01 T02730159  RH  050%=      5-min Rain = 0
KMD1 180140Z 07004KT 27/16 A2994 RMK A01 T02730159  RH  050%=      5-min Rain = 0
KMD1 180141Z 08004KT 27/16 A2994 RMK A01 T02730159  RH  050%=      5-min Rain = 0
KMD1 180142Z 08004KT 27/16 A2994 RMK A01 T02730159  RH  050%=      5-min Rain = 0
KMD1 180143Z 07004KT 27/16 A2994 RMK A01 T02730159  RH  050%=      5-min Rain = 0
KMD1 180144Z 08004KT 27/16 A2994 RMK A01 T02720159  RH  050%=      5-min Rain = 0
KMD1 180145Z 07004KT 27/16 A2994 RMK A01 T02720160  RH  050%=      5-min Rain = 0
KMD1 180146Z 08004KT 27/16 A2994 RMK A01 T02720160  RH  050%=      5-min Rain = 0
KMD1 180147Z 08004KT 27/16 A2994 RMK A01 T02720160  RH  050%=      5-min Rain = 0
KMD1 180148Z 08004KT 27/16 A2994 RMK A01 T02720160  RH  050%=      5-min Rain = 0
KMD1 180149Z 08005KT 27/16 A2995 RMK A01 T02730160  RH  050%=      5-min Rain = 0
KMD1 180150Z 08004KT 27/16 A2995 RMK A01 T02730160  RH  050%=      5-min Rain = 0
KMD1 180151Z 08004KT 27/16 A2995 RMK A01 T02730161  RH  050%=      5-min Rain = 0
KMD1 180152Z 08004KT 27/16 A2995 RMK A01 T02730161  RH  050%=      5-min Rain = 0
KMD1 180153Z 08004KT 27/16 A2995 RMK A01 T02720161  RH  050%=      5-min Rain = 0
KMD1 180154Z 07004KT 27/16 A2995 RMK A01 T02720161  RH  051%=      5-min Rain = 0
KMD1 180155Z 07004KT 27/16 A2995 RMK A01 T02710161  RH  051%=      5-min Rain = 0
KMD1 180156Z 08004KT 27/16 A2995 RMK A01 T02700161  RH  051%=      5-min Rain = 0
KMD1 180157Z 08004KT 27/16 A2995 RMK A01 T02700161  RH  051%=      5-min Rain = 0
KMD1 180158Z 08004KT 27/16 A2995 RMK A01 T02700161  RH  051%=      5-min Rain = 0
KMD1 180159Z 08004KT 27/16 A2995 RMK A01 T02700161  RH  051%=      5-min Rain = 0
KMD1 180200Z 08004KT 27/16 A2995 RMK A01 T02700161  RH  051%=      5-min Rain = 0
KMD1 180201Z 08004KT 27/16 A2995 RMK A01 T02700161  RH  051%=      5-min Rain = 0
KMD1 180202Z 08004KT 27/16 A2995 RMK A01 T02700161  RH  051%=      5-min Rain = 0
KMD1 180203Z 07004KT 27/16 A2995 RMK A01 T02700161  RH  051%=      5-min Rain = 0
KMD1 180204Z 07004KT 27/16 A2995 RMK A01 T02700161  RH  051%=      5-min Rain = 0
KMD1 180205Z 07004KT 27/16 A2995 RMK A01 T02700162  RH  051%=      5-min Rain = 0
KMD1 180206Z 07004KT 27/16 A2995 RMK A01 T02690162  RH  052%=      5-min Rain = 0
KMD1 180207Z 07004KT 27/16 A2995 RMK A01 T02680162  RH  052%=      5-min Rain = 0
KMD1 180208Z 07004KT 27/16 A2995 RMK A01 T02680162  RH  052%=      5-min Rain = 0
KMD1 180209Z 07004KT 27/16 A2995 RMK A01 T02680162  RH  052%=      5-min Rain = 0
KMD1 180210Z 08004KT 27/16 A2995 RMK A01 T02680162  RH  052%=      5-min Rain = 0
KMD1 180211Z 08003KT 27/16 A2995 RMK A01 T02670162  RH  052%=      5-min Rain = 0
KMD1 180212Z 08003KT 27/16 A2995 RMK A01 T02670162  RH  053%=      5-min Rain = 0
KMD1 180213Z 08003KT 27/16 A2995 RMK A01 T02670163  RH  053%=      5-min Rain = 0
KMD1 180214Z 08003KT 27/16 A2995 RMK A01 T02660162  RH  053%=      5-min Rain = 0
KMD1 180215Z 08003KT 27/16 A2995 RMK A01 T02660162  RH  053%=      5-min Rain = 0
KMD1 180216Z 07003KT 27/16 A2995 RMK A01 T02660162  RH  053%=      5-min Rain = 0
KMD1 180217Z 07003KT 27/16 A2995 RMK A01 T02660162  RH  053%=      5-min Rain = 0
KMD1 180218Z 06004KT 27/16 A2995 RMK A01 T02660162  RH  053%=      5-min Rain = 0
KMD1 180219Z 07004KT 27/16 A2995 RMK A01 T02660162  RH  053%=      5-min Rain = 0
KMD1 180220Z 06004KT 27/16 A2995 RMK A01 T02660162  RH  053%=      5-min Rain = 0
KMD1 180221Z 06004KT 27/16 A2995 RMK A01 T02660163  RH  053%=      5-min Rain = 0
KMD1 180222Z 06004KT 27/16 A2995 RMK A01 T02650163  RH  053%=      5-min Rain = 0
KMD1 180223Z 07004KT 27/16 A2995 RMK A01 T02650163  RH  053%=      5-min Rain = 0
KMD1 180224Z 07004KT 27/16 A2995 RMK A01 T02650163  RH  054%=      5-min Rain = 0
KMD1 180225Z 07004KT 26/16 A2995 RMK A01 T02640163  RH  054%=      5-min Rain = 0
KMD1 180226Z 07003KT 26/16 A2995 RMK A01 T02640163  RH  054%=      5-min Rain = 0
KMD1 180227Z 08003KT 26/16 A2995 RMK A01 T02640163  RH  054%=      5-min Rain = 0
KMD1 180228Z 08003KT 26/16 A2996 RMK A01 T02640163  RH  054%=      5-min Rain = 0
KMD1 180229Z 08003KT 26/16 A2996 RMK A01 T02640163  RH  054%=      5-min Rain = 0
KMD1 180230Z 08003KT 26/16 A2996 RMK A01 T02630163  RH  054%=      5-min Rain = 0
KMD1 180231Z 08003KT 26/16 A2996 RMK A01 T02630163  RH  054%=      5-min Rain = 0
KMD1 180232Z 08003KT 26/16 A2996 RMK A01 T02620162  RH  054%=      5-min Rain = 0
KMD1 180233Z 08003KT 26/16 A2996 RMK A01 T02630163  RH  054%=      5-min Rain = 0
KMD1 180234Z 08003KT 26/16 A2996 RMK A01 T02620163  RH  054%=      5-min Rain = 0
KMD1 180235Z 08003KT 26/16 A2996 RMK A01 T02620163  RH  054%=      5-min Rain = 0
KMD1 180236Z 07003KT 26/16 A2996 RMK A01 T02610162  RH  054%=      5-min Rain = 0
KMD1 180237Z 07002KT 26/16 A2996 RMK A01 T02600162  RH  055%=      5-min Rain = 0
KMD1 180238Z 07002KT 26/16 A2996 RMK A01 T02590162  RH  055%=      5-min Rain = 0
KMD1 180239Z 07002KT 26/16 A2996 RMK A01 T02570162  RH  056%=      5-min Rain = 0
KMD1 180240Z 07002KT 26/16 A2996 RMK A01 T02560162  RH  056%=      5-min Rain = 0
KMD1 180241Z 07002KT 26/16 A2996 RMK A01 T02550162  RH  056%=      5-min Rain = 0
KMD1 180242Z 06002KT 25/16 A2996 RMK A01 T02540162  RH  057%=      5-min Rain = 0
KMD1 180243Z 06002KT 25/16 A2996 RMK A01 T02530162  RH  057%=      5-min Rain = 0
KMD1 180244Z 06002KT 25/16 A2996 RMK A01 T02530162  RH  057%=      5-min Rain = 0
KMD1 180245Z 06002KT 25/16 A2996 RMK A01 T02530163  RH  057%=      5-min Rain = 0
KMD1 180246Z 05002KT 25/16 A2996 RMK A01 T02530163  RH  057%=      5-min Rain = 0
KMD1 180247Z 06003KT 25/16 A2996 RMK A01 T02530163  RH  057%=      5-min Rain = 0
KMD1 180248Z 06003KT 25/16 A2996 RMK A01 T02530163  RH  057%=      5-min Rain = 0
KMD1 180249Z 06003KT 25/16 A2997 RMK A01 T02530163  RH  057%=      5-min Rain = 0
KMD1 180250Z 06003KT 25/16 A2997 RMK A01 T02540163  RH  057%=      5-min Rain = 0
KMD1 180251Z 06004KT 25/16 A2997 RMK A01 T02540163  RH  057%=      5-min Rain = 0
KMD1 180252Z 07004KT 25/16 A2997 RMK A01 T02530163  RH  057%=      5-min Rain = 0
KMD1 180253Z 06004KT 25/16 A2997 RMK A01 T02530163  RH  058%=      5-min Rain = 0
KMD1 180254Z 08004KT 25/16 A2997 RMK A01 T02520163  RH  058%=      5-min Rain = 0
KMD1 180255Z 08005KT 25/16 A2997 RMK A01 T02510163  RH  058%=      5-min Rain = 0
KMD1 180256Z 08005KT 25/16 A2997 RMK A01 T02500164  RH  059%=      5-min Rain = 0
KMD1 180257Z 09005KT 25/17 A2997 RMK A01 T02500166  RH  059%=      5-min Rain = 0
KMD1 180258Z 09005KT 25/17 A2997 RMK A01 T02500165  RH  059%=      5-min Rain = 0
KMD1 180259Z 09006KT 25/17 A2997 RMK A01 T02500165  RH  059%=      5-min Rain = 0
KMD1 180300Z 09005KT 25/16 A2997 RMK A01 T02500164  RH  059%=      5-min Rain = 0
KMD1 180301Z 09005KT 25/17 A2997 RMK A01 T02510165  RH  059%=      5-min Rain = 0
KMD1 180302Z 09005KT 25/17 A2997 RMK A01 T02520165  RH  059%=      5-min Rain = 0
KMD1 180303Z 09005KT 25/17 A2997 RMK A01 T02530165  RH  058%=      5-min Rain = 0
KMD1 180304Z 09005KT 25/17 A2997 RMK A01 T02530166  RH  058%=      5-min Rain = 0
KMD1 180305Z 09005KT 25/17 A2997 RMK A01 T02530166  RH  059%=      5-min Rain = 0
KMD1 180306Z 09005KT 25/17 A2997 RMK A01 T02530166  RH  059%=      5-min Rain = 0
KMD1 180307Z 09005KT 25/17 A2997 RMK A01 T02520167  RH  059%=      5-min Rain = 0
KMD1 180308Z 09005KT 25/17 A2997 RMK A01 T02530167  RH  059%=      5-min Rain = 0
KMD1 180309Z 09005KT 25/17 A2997 RMK A01 T02520167  RH  059%=      5-min Rain = 0
KMD1 180310Z 09005KT 25/17 A2997 RMK A01 T02520167  RH  059%=      5-min Rain = 0
KMD1 180311Z 09005KT 25/17 A2997 RMK A01 T02520167  RH  059%=      5-min Rain = 0
KMD1 180312Z 09005KT 25/17 A2997 RMK A01 T02520167  RH  059%=      5-min Rain = 0
KMD1 180313Z 09005KT 25/17 A2997 RMK A01 T02520167  RH  060%=      5-min Rain = 0
KMD1 180314Z 08005KT 25/17 A2997 RMK A01 T02520167  RH  059%=      5-min Rain = 0
KMD1 180315Z 08005KT 25/17 A2997 RMK A01 T02520167  RH  059%=      5-min Rain = 0
KMD1 180316Z 08004KT 25/17 A2997 RMK A01 T02520167  RH  059%=      5-min Rain = 0
KMD1 180317Z 08004KT 25/17 A2997 RMK A01 T02520168  RH  059%=      5-min Rain = 0
KMD1 180318Z 08005KT 25/17 A2997 RMK A01 T02520168  RH  059%=      5-min Rain = 0
KMD1 180319Z 08004KT 25/17 A2997 RMK A01 T02520167  RH  059%=      5-min Rain = 0
KMD1 180320Z 09004KT 25/17 A2997 RMK A01 T02520168  RH  060%=      5-min Rain = 0
KMD1 180321Z 08005KT 25/17 A2997 RMK A01 T02520168  RH  060%=      5-min Rain = 0
KMD1 180322Z 09004KT 25/17 A2997 RMK A01 T02520168  RH  060%=      5-min Rain = 0
KMD1 180323Z 09005KT 25/17 A2997 RMK A01 T02510168  RH  060%=      5-min Rain = 0
KMD1 180324Z 09004KT 25/17 A2997 RMK A01 T02510168  RH  060%=      5-min Rain = 0
KMD1 180325Z 09005KT 25/17 A2997 RMK A01 T02510168  RH  060%=      5-min Rain = 0
KMD1 180326Z 09004KT 25/17 A2997 RMK A01 T02510169  RH  060%=      5-min Rain = 0
KMD1 180327Z 09005KT 25/17 A2998 RMK A01 T02510168  RH  060%=      5-min Rain = 0
KMD1 180328Z 09004KT 25/17 A2998 RMK A01 T02510168  RH  060%=      5-min Rain = 0
KMD1 180329Z 09004KT 25/17 A2998 RMK A01 T02510169  RH  060%=      5-min Rain = 0
KMD1 180330Z 09004KT 25/17 A2998 RMK A01 T02500169  RH  061%=      5-min Rain = 0
KMD1 180331Z 09004KT 25/17 A2998 RMK A01 T02500169  RH  061%=      5-min Rain = 0
KMD1 180332Z 08004KT 25/17 A2998 RMK A01 T02490168  RH  061%=      5-min Rain = 0
KMD1 180333Z 09004KT 25/17 A2998 RMK A01 T02490169  RH  061%=      5-min Rain = 0
KMD1 180334Z 08003KT 25/17 A2998 RMK A01 T02490169  RH  061%=      5-min Rain = 0
KMD1 180335Z 09003KT 25/17 A2998 RMK A01 T02490169  RH  061%=      5-min Rain = 0
KMD1 180336Z 08003KT 25/17 A2998 RMK A01 T02480169  RH  061%=      5-min Rain = 0
KMD1 180337Z 08003KT 25/17 A2998 RMK A01 T02480169  RH  061%=      5-min Rain = 0
KMD1 180338Z 08003KT 25/17 A2998 RMK A01 T02470169  RH  062%=      5-min Rain = 0
KMD1 180339Z 08003KT 25/17 A2998 RMK A01 T02470169  RH  062%=      5-min Rain = 0
KMD1 180340Z 08003KT 25/17 A2998 RMK A01 T02470169  RH  062%=      5-min Rain = 0
KMD1 180341Z 08003KT 25/17 A2998 RMK A01 T02470169  RH  062%=      5-min Rain = 0
KMD1 180342Z 09003KT 25/17 A2998 RMK A01 T02470169  RH  062%=      5-min Rain = 0
KMD1 180343Z 09002KT 25/17 A2998 RMK A01 T02460169  RH  062%=      5-min Rain = 0
KMD1 180344Z 10003KT 25/17 A2998 RMK A01 T02460169  RH  062%=      5-min Rain = 0
KMD1 180345Z 10002KT 25/17 A2998 RMK A01 T02460169  RH  062%=      5-min Rain = 0
KMD1 180346Z 10003KT 25/17 A2998 RMK A01 T02460169  RH  062%=      5-min Rain = 0
KMD1 180347Z 10003KT 25/17 A2998 RMK A01 T02460169  RH  062%=      5-min Rain = 0
KMD1 180348Z 09003KT 25/17 A2998 RMK A01 T02460169  RH  062%=      5-min Rain = 0
KMD1 180349Z 09003KT 25/17 A2998 RMK A01 T02460169  RH  062%=      5-min Rain = 0
KMD1 180350Z 09003KT 25/17 A2998 RMK A01 T02460170  RH  062%=      5-min Rain = 0
KMD1 180351Z 09003KT 25/17 A2998 RMK A01 T02460169  RH  062%=      5-min Rain = 0
KMD1 180352Z 09003KT 25/17 A2998 RMK A01 T02450170  RH  063%=      5-min Rain = 0
KMD1 180353Z 09003KT 25/17 A2998 RMK A01 T02450170  RH  063%=      5-min Rain = 0
KMD1 180354Z 10003KT 25/17 A2998 RMK A01 T02450170  RH  063%=      5-min Rain = 0
KMD1 180355Z 10003KT 24/17 A2998 RMK A01 T02440170  RH  063%=      5-min Rain = 0
KMD1 180356Z 10003KT 24/17 A2998 RMK A01 T02440170  RH  063%=      5-min Rain = 0
KMD1 180357Z 10003KT 24/17 A2998 RMK A01 T02440170  RH  063%=      5-min Rain = 0
KMD1 180358Z 10004KT 24/17 A2998 RMK A01 T02440170  RH  063%=      5-min Rain = 0
KMD1 180359Z 09003KT 24/17 A2998 RMK A01 T02430170  RH  063%=      5-min Rain = 0
KMD1 180400Z 09004KT 24/17 A2998 RMK A01 T02430170  RH  064%=      5-min Rain = 0
KMD1 180401Z 09004KT 24/17 A2998 RMK A01 T02420170  RH  064%=      5-min Rain = 0
KMD1 180402Z 09004KT 24/17 A2998 RMK A01 T02420170  RH  064%=      5-min Rain = 0
KMD1 180403Z 09004KT 24/17 A2998 RMK A01 T02420170  RH  064%=      5-min Rain = 0
KMD1 180404Z 09004KT 24/17 A2998 RMK A01 T02410170  RH  065%=      5-min Rain = 0
KMD1 180405Z 09004KT 24/17 A2998 RMK A01 T02410170  RH  065%=      5-min Rain = 0
KMD1 180406Z 09003KT 24/17 A2998 RMK A01 T02410171  RH  065%=      5-min Rain = 0
KMD1 180407Z 09003KT 24/17 A2998 RMK A01 T02410171  RH  065%=      5-min Rain = 0
KMD1 180408Z 09004KT 24/17 A2998 RMK A01 T02410170  RH  065%=      5-min Rain = 0
KMD1 180409Z 09003KT 24/17 A2998 RMK A01 T02410170  RH  065%=      5-min Rain = 0
KMD1 180410Z 08004KT 24/17 A2998 RMK A01 T02410171  RH  065%=      5-min Rain = 0
KMD1 180411Z 09004KT 24/17 A2998 RMK A01 T02400171  RH  065%=      5-min Rain = 0
KMD1 180412Z 08004KT 24/17 A2998 RMK A01 T02400171  RH  065%=      5-min Rain = 0
KMD1 180413Z 08003KT 24/17 A2998 RMK A01 T02390170  RH  065%=      5-min Rain = 0
KMD1 180414Z 09003KT 24/17 A2998 RMK A01 T02390171  RH  065%=      5-min Rain = 0
KMD1 180415Z 09003KT 24/17 A2999 RMK A01 T02390171  RH  066%=      5-min Rain = 0
KMD1 180416Z 09003KT 24/17 A2998 RMK A01 T02380171  RH  066%=      5-min Rain = 0
KMD1 180417Z 09003KT 24/17 A2998 RMK A01 T02380171  RH  066%=      5-min Rain = 0
KMD1 180418Z 09004KT 24/17 A2998 RMK A01 T02370171  RH  066%=      5-min Rain = 0
KMD1 180419Z 09004KT 24/17 A2998 RMK A01 T02370172  RH  067%=      5-min Rain = 0
KMD1 180420Z 08004KT 24/17 A2998 RMK A01 T02370172  RH  067%=      5-min Rain = 0
KMD1 180421Z 09004KT 24/17 A2998 RMK A01 T02380172  RH  067%=      5-min Rain = 0
KMD1 180422Z 09004KT 24/17 A2998 RMK A01 T02370172  RH  067%=      5-min Rain = 0
KMD1 180423Z 09004KT 24/17 A2998 RMK A01 T02380172  RH  067%=      5-min Rain = 0
KMD1 180424Z 09004KT 24/17 A2998 RMK A01 T02380172  RH  067%=      5-min Rain = 0
KMD1 180425Z 09004KT 24/17 A2998 RMK A01 T02380173  RH  067%=      5-min Rain = 0
KMD1 180426Z 09004KT 24/17 A2998 RMK A01 T02380173  RH  067%=      5-min Rain = 0
KMD1 180427Z 10004KT 24/17 A2998 RMK A01 T02380173  RH  067%=      5-min Rain = 0
KMD1 180428Z 09004KT 24/17 A2998 RMK A01 T02380174  RH  067%=      5-min Rain = 0
KMD1 180429Z 09004KT 24/17 A2998 RMK A01 T02380174  RH  067%=      5-min Rain = 0
KMD1 180430Z 09004KT 24/17 A2998 RMK A01 T02370174  RH  068%=      5-min Rain = 0
KMD1 180431Z 09003KT 24/17 A2998 RMK A01 T02370174  RH  068%=      5-min Rain = 0
KMD1 180432Z 09004KT 24/18 A2998 RMK A01 T02370175  RH  068%=      5-min Rain = 0
KMD1 180433Z 09003KT 24/18 A2998 RMK A01 T02370175  RH  068%=      5-min Rain = 0
KMD1 180434Z 09004KT 24/18 A2998 RMK A01 T02370175  RH  068%=      5-min Rain = 0
KMD1 180435Z 09003KT 24/18 A2998 RMK A01 T02370175  RH  068%=      5-min Rain = 0
KMD1 180436Z 10003KT 24/18 A2998 RMK A01 T02360175  RH  069%=      5-min Rain = 0
KMD1 180437Z 10003KT 24/18 A2998 RMK A01 T02360175  RH  069%=      5-min Rain = 0
KMD1 180438Z 09003KT 24/18 A2998 RMK A01 T02370175  RH  068%=      5-min Rain = 0
KMD1 180439Z 09003KT 24/18 A2998 RMK A01 T02360175  RH  068%=      5-min Rain = 0
KMD1 180440Z 09003KT 24/18 A2998 RMK A01 T02360176  RH  069%=      5-min Rain = 0
KMD1 180441Z 09003KT 24/18 A2998 RMK A01 T02360176  RH  069%=      5-min Rain = 0
KMD1 180442Z 09003KT 24/18 A2998 RMK A01 T02360176  RH  069%=      5-min Rain = 0
KMD1 180443Z 09003KT 24/18 A2998 RMK A01 T02350176  RH  069%=      5-min Rain = 0
KMD1 180444Z 09003KT 24/18 A2998 RMK A01 T02350176  RH  069%=      5-min Rain = 0
KMD1 180445Z 09003KT 24/18 A2998 RMK A01 T02360176  RH  069%=      5-min Rain = 0
KMD1 180446Z 09003KT 24/18 A2998 RMK A01 T02350176  RH  069%=      5-min Rain = 0
KMD1 180447Z 10003KT 24/18 A2998 RMK A01 T02360177  RH  070%=      5-min Rain = 0
KMD1 180448Z 09003KT 24/18 A2998 RMK A01 T02360177  RH  070%=      5-min Rain = 0
KMD1 180449Z 09003KT 24/18 A2998 RMK A01 T02360178  RH  070%=      5-min Rain = 0
KMD1 180450Z 09004KT 24/18 A2998 RMK A01 T02360178  RH  070%=      5-min Rain = 0
KMD1 180451Z 09004KT 24/18 A2998 RMK A01 T02350178  RH  070%=      5-min Rain = 0
KMD1 180452Z 09003KT 24/18 A2998 RMK A01 T02350178  RH  070%=      5-min Rain = 0
KMD1 180453Z 09003KT 24/18 A2998 RMK A01 T02350178  RH  070%=      5-min Rain = 0
KMD1 180454Z 09003KT 24/18 A2998 RMK A01 T02350178  RH  070%=      5-min Rain = 0
KMD1 180455Z 09003KT 24/18 A2998 RMK A01 T02350178  RH  071%=      5-min Rain = 0
KMD1 180456Z 09003KT 23/18 A2998 RMK A01 T02340178  RH  071%=      5-min Rain = 0
KMD1 180457Z 09002KT 23/18 A2998 RMK A01 T02340179  RH  071%=      5-min Rain = 0
KMD1 180458Z 09003KT 23/18 A2998 RMK A01 T02340179  RH  071%=      5-min Rain = 0
KMD1 180459Z 08002KT 23/18 A2998 RMK A01 T02340180  RH  072%=      5-min Rain = 0

Page generated in 0.1212 seconds.